Observation data for Sterling City on 05/23/2019      Previous  Date  Next       Current Mesonet Observations  Soil Data  Daily Summary Page  Observations in Plain Language
KSC1 230500Z 13012KT 24/20 A2981 RMK A01 T02380203  RH  081%=      5-min Rain = 0
KSC1 230501Z 13011KT 24/20 A2981 RMK A01 T02380203  RH  081%=      5-min Rain = 0
KSC1 230502Z 12012KT 24/20 A2981 RMK A01 T02380203  RH  081%=      5-min Rain = 0
KSC1 230503Z 12012KT 24/20 A2981 RMK A01 T02380204  RH  081%=      5-min Rain = 0
KSC1 230504Z 12011KT 24/20 A2981 RMK A01 T02370204  RH  081%=      5-min Rain = 0
KSC1 230505Z 12011KT 24/20 A2981 RMK A01 T02370203  RH  082%=      5-min Rain = 0
KSC1 230506Z 12011KT 24/20 A2981 RMK A01 T02370204  RH  082%=      5-min Rain = 0
KSC1 230507Z 12011KT 24/20 A2981 RMK A01 T02360204  RH  082%=      5-min Rain = 0
KSC1 230508Z 12012KT 24/20 A2981 RMK A01 T02360204  RH  082%=      5-min Rain = 0
KSC1 230509Z 12012KT 24/20 A2981 RMK A01 T02360204  RH  082%=      5-min Rain = 0
KSC1 230510Z 12011KT 24/20 A2981 RMK A01 T02370204  RH  082%=      5-min Rain = 0
KSC1 230511Z 12011KT 24/20 A2981 RMK A01 T02370204  RH  082%=      5-min Rain = 0
KSC1 230512Z 13011KT 24/20 A2981 RMK A01 T02360204  RH  082%=      5-min Rain = 0
KSC1 230513Z 12012G17KT 24/21 A2981 RMK A01 T02370205  RH  082%=      5-min Rain = 0
KSC1 230514Z 12011KT 24/21 A2981 RMK A01 T02370205  RH  082%=      5-min Rain = 0
KSC1 230515Z 12013KT 24/21 A2981 RMK A01 T02370205  RH  082%=      5-min Rain = 0
KSC1 230516Z 13011G16KT 24/21 A2981 RMK A01 T02360205  RH  083%=      5-min Rain = 0
KSC1 230517Z 12013KT 24/21 A2981 RMK A01 T02360205  RH  083%=      5-min Rain = 0
KSC1 230518Z 12013KT 24/21 A2981 RMK A01 T02360205  RH  083%=      5-min Rain = 0
KSC1 230519Z 12011KT 24/21 A2981 RMK A01 T02360205  RH  083%=      5-min Rain = 0
KSC1 230520Z 12011G16KT 24/21 A2981 RMK A01 T02360205  RH  083%=      5-min Rain = 0
KSC1 230521Z 13011G16KT 24/21 A2981 RMK A01 T02350206  RH  083%=      5-min Rain = 0
KSC1 230522Z 12010KT 24/21 A2981 RMK A01 T02350206  RH  084%=      5-min Rain = 0
KSC1 230523Z 12010KT 24/21 A2981 RMK A01 T02350206  RH  084%=      5-min Rain = 0
KSC1 230524Z 12010KT 23/21 A2981 RMK A01 T02340207  RH  084%=      5-min Rain = 0
KSC1 230525Z 12013KT 23/21 A2981 RMK A01 T02340207  RH  085%=      5-min Rain = 0
KSC1 230526Z 12013KT 24/21 A2981 RMK A01 T02350206  RH  084%=      5-min Rain = 0
KSC1 230527Z 12011KT 24/21 A2981 RMK A01 T02360206  RH  084%=      5-min Rain = 0
KSC1 230528Z 12010KT 24/21 A2981 RMK A01 T02350206  RH  084%=      5-min Rain = 0
KSC1 230529Z 12013KT 24/21 A2981 RMK A01 T02360207  RH  084%=      5-min Rain = 0
KSC1 230530Z 12012KT 24/21 A2981 RMK A01 T02360207  RH  084%=      5-min Rain = 0
KSC1 230531Z 12012KT 24/21 A2982 RMK A01 T02350207  RH  084%=      5-min Rain = 0
KSC1 230532Z 12010KT 24/21 A2982 RMK A01 T02350207  RH  084%=      5-min Rain = 0
KSC1 230533Z 12013KT 24/21 A2982 RMK A01 T02350207  RH  085%=      5-min Rain = 0
KSC1 230534Z 12013KT 24/21 A2982 RMK A01 T02350207  RH  085%=      5-min Rain = 0
KSC1 230535Z 12010G15KT 24/21 A2982 RMK A01 T02350207  RH  085%=      5-min Rain = 0
KSC1 230536Z 13011KT 24/21 A2982 RMK A01 T02350207  RH  085%=      5-min Rain = 0
KSC1 230537Z 13009KT 23/21 A2982 RMK A01 T02340208  RH  085%=      5-min Rain = 0
KSC1 230538Z 13012KT 23/21 A2982 RMK A01 T02340208  RH  086%=      5-min Rain = 0
KSC1 230539Z 12014KT 23/21 A2982 RMK A01 T02340209  RH  086%=      5-min Rain = 0
KSC1 230540Z 12012KT 24/21 A2982 RMK A01 T02350209  RH  085%=      5-min Rain = 0
KSC1 230541Z 13011KT 24/21 A2982 RMK A01 T02350209  RH  085%=      5-min Rain = 0
KSC1 230542Z 12013KT 24/21 A2982 RMK A01 T02350209  RH  085%=      5-min Rain = 0
KSC1 230543Z 12012KT 24/21 A2982 RMK A01 T02350209  RH  085%=      5-min Rain = 0
KSC1 230544Z 13011KT 24/21 A2982 RMK A01 T02350210  RH  086%=      5-min Rain = 0
KSC1 230545Z 13011KT 24/21 A2982 RMK A01 T02350210  RH  086%=      5-min Rain = 0
KSC1 230546Z 12011KT 24/21 A2982 RMK A01 T02350210  RH  086%=      5-min Rain = 0
KSC1 230547Z 13012KT 24/21 A2982 RMK A01 T02350211  RH  086%=      5-min Rain = 0
KSC1 230548Z 13013KT 24/21 A2982 RMK A01 T02350211  RH  086%=      5-min Rain = 0
KSC1 230549Z 13013KT 24/21 A2982 RMK A01 T02350211  RH  087%=      5-min Rain = 0
KSC1 230550Z 13013KT 24/21 A2982 RMK A01 T02350212  RH  087%=      5-min Rain = 0
KSC1 230551Z 13012KT 24/21 A2982 RMK A01 T02350211  RH  087%=      5-min Rain = 0
KSC1 230552Z 13010KT 24/21 A2982 RMK A01 T02350211  RH  087%=      5-min Rain = 0
KSC1 230553Z 13011KT 24/21 A2982 RMK A01 T02350212  RH  087%=      5-min Rain = 0
KSC1 230554Z 13013G18KT 24/21 A2982 RMK A01 T02350213  RH  087%=      5-min Rain = 0
KSC1 230555Z 13015KT 24/21 A2982 RMK A01 T02350213  RH  087%=      5-min Rain = 0
KSC1 230556Z 13015KT 24/21 A2982 RMK A01 T02350213  RH  087%=      5-min Rain = 0
KSC1 230557Z 13012KT 24/21 A2982 RMK A01 T02360213  RH  087%=      5-min Rain = 0
KSC1 230558Z 13011G16KT 24/21 A2982 RMK A01 T02360213  RH  087%=      5-min Rain = 0
KSC1 230559Z 13010KT 24/21 A2982 RMK A01 T02360213  RH  087%=      5-min Rain = 0
KSC1 230600Z 13012KT 24/21 A2982 RMK A01 T02360214  RH  087%=      5-min Rain = 0
KSC1 230601Z 12013KT 24/21 A2982 RMK A01 T02360214  RH  088%=      5-min Rain = 0
KSC1 230602Z 12012KT 24/21 A2982 RMK A01 T02350214  RH  088%=      5-min Rain = 0
KSC1 230603Z 12013KT 24/21 A2982 RMK A01 T02360214  RH  088%=      5-min Rain = 0
KSC1 230604Z 13011KT 24/21 A2982 RMK A01 T02360214  RH  087%=      5-min Rain = 0
KSC1 230605Z 13010KT 24/22 A2982 RMK A01 T02370215  RH  088%=      5-min Rain = 0
KSC1 230606Z 13010KT 24/22 A2982 RMK A01 T02360215  RH  088%=      5-min Rain = 0
KSC1 230607Z 12010KT 24/22 A2982 RMK A01 T02360216  RH  088%=      5-min Rain = 0
KSC1 230608Z 12009KT 24/22 A2982 RMK A01 T02360216  RH  089%=      5-min Rain = 0
KSC1 230609Z 12012KT 24/22 A2982 RMK A01 T02360216  RH  089%=      5-min Rain = 0
KSC1 230610Z 12013KT 24/22 A2982 RMK A01 T02350217  RH  089%=      5-min Rain = 0
KSC1 230611Z 13010KT 24/22 A2982 RMK A01 T02360217  RH  089%=      5-min Rain = 0
KSC1 230612Z 13012KT 24/22 A2982 RMK A01 T02350217  RH  089%=      5-min Rain = 0
KSC1 230613Z 12009KT 24/22 A2982 RMK A01 T02360217  RH  089%=      5-min Rain = 0
KSC1 230614Z 13009KT 24/22 A2982 RMK A01 T02350217  RH  090%=      5-min Rain = 0
KSC1 230615Z 13009KT 24/22 A2982 RMK A01 T02350218  RH  090%=      5-min Rain = 0
KSC1 230616Z 12012KT 24/22 A2982 RMK A01 T02350219  RH  091%=      5-min Rain = 0
KSC1 230617Z 12012KT 24/22 A2982 RMK A01 T02350219  RH  091%=      5-min Rain = 0
KSC1 230618Z 13011KT 24/22 A2982 RMK A01 T02350219  RH  091%=      5-min Rain = 0
KSC1 230619Z 13014KT 24/22 A2982 RMK A01 T02350219  RH  090%=      5-min Rain = 0
KSC1 230620Z 12011KT 24/22 A2982 RMK A01 T02360219  RH  090%=      5-min Rain = 0
KSC1 230621Z 12012KT 24/22 A2982 RMK A01 T02360218  RH  090%=      5-min Rain = 0
KSC1 230622Z 13010KT 24/22 A2982 RMK A01 T02360219  RH  090%=      5-min Rain = 0
KSC1 230623Z 12011KT 24/22 A2982 RMK A01 T02360219  RH  090%=      5-min Rain = 0
KSC1 230624Z 12011KT 24/22 A2982 RMK A01 T02360219  RH  090%=      5-min Rain = 0
KSC1 230625Z 12013KT 24/22 A2982 RMK A01 T02360219  RH  090%=      5-min Rain = 0
KSC1 230626Z 13011KT 24/22 A2982 RMK A01 T02360219  RH  090%=      5-min Rain = 0
KSC1 230627Z 12012KT 24/22 A2982 RMK A01 T02360219  RH  090%=      5-min Rain = 0
KSC1 230628Z 12010KT 24/22 A2982 RMK A01 T02360219  RH  090%=      5-min Rain = 0
KSC1 230629Z 13009KT 24/22 A2982 RMK A01 T02360219  RH  090%=      5-min Rain = 0
KSC1 230630Z 12012KT 24/22 A2982 RMK A01 T02350220  RH  091%=      5-min Rain = 0
KSC1 230631Z 12014KT 24/22 A2982 RMK A01 T02350220  RH  091%=      5-min Rain = 0
KSC1 230632Z 12011KT 24/22 A2982 RMK A01 T02360220  RH  090%=      5-min Rain = 0
KSC1 230633Z 12011KT 24/22 A2982 RMK A01 T02360219  RH  090%=      5-min Rain = 0
KSC1 230634Z 13010KT 24/22 A2982 RMK A01 T02360220  RH  090%=      5-min Rain = 0
KSC1 230635Z 12011KT 24/22 A2982 RMK A01 T02360220  RH  090%=      5-min Rain = 0
KSC1 230636Z 12012KT 24/22 A2982 RMK A01 T02360220  RH  091%=      5-min Rain = 0
KSC1 230637Z 12010KT 24/22 A2982 RMK A01 T02360220  RH  091%=      5-min Rain = 0
KSC1 230638Z 12011KT 24/22 A2982 RMK A01 T02360220  RH  091%=      5-min Rain = 0
KSC1 230639Z 13011KT 24/22 A2982 RMK A01 T02360220  RH  091%=      5-min Rain = 0
KSC1 230640Z 12010G15KT 24/22 A2982 RMK A01 T02360220  RH  091%=      5-min Rain = 0
KSC1 230641Z 13010KT 24/22 A2982 RMK A01 T02360220  RH  091%=      5-min Rain = 0
KSC1 230642Z 12011KT 24/22 A2982 RMK A01 T02350220  RH  091%=      5-min Rain = 0
KSC1 230643Z 13011KT 24/22 A2982 RMK A01 T02350220  RH  091%=      5-min Rain = 0
KSC1 230644Z 12010KT 24/22 A2982 RMK A01 T02360220  RH  091%=      5-min Rain = 0
KSC1 230645Z 12011KT 24/22 A2982 RMK A01 T02350220  RH  091%=      5-min Rain = 0
KSC1 230646Z 13011KT 24/22 A2982 RMK A01 T02350220  RH  091%=      5-min Rain = 0
KSC1 230647Z 12012G17KT 24/22 A2982 RMK A01 T02350220  RH  091%=      5-min Rain = 0
KSC1 230648Z 13010KT 24/22 A2982 RMK A01 T02350220  RH  091%=      5-min Rain = 0
KSC1 230649Z 12010KT 24/22 A2982 RMK A01 T02360220  RH  091%=      5-min Rain = 0
KSC1 230650Z 12012KT 24/22 A2982 RMK A01 T02360220  RH  091%=      5-min Rain = 0
KSC1 230651Z 12011KT 24/22 A2982 RMK A01 T02350220  RH  091%=      5-min Rain = 0
KSC1 230652Z 12009KT 24/22 A2982 RMK A01 T02360220  RH  091%=      5-min Rain = 0
KSC1 230653Z 12010KT 24/22 A2982 RMK A01 T02360220  RH  091%=      5-min Rain = 0
KSC1 230654Z 12011KT 24/22 A2982 RMK A01 T02360221  RH  091%=      5-min Rain = 0
KSC1 230655Z 12010KT 24/22 A2982 RMK A01 T02360221  RH  091%=      5-min Rain = 0
KSC1 230656Z 13009KT 24/22 A2982 RMK A01 T02350220  RH  091%=      5-min Rain = 0
KSC1 230657Z 13011KT 24/22 A2982 RMK A01 T02360220  RH  091%=      5-min Rain = 0
KSC1 230658Z 12011KT 24/22 A2982 RMK A01 T02360220  RH  091%=      5-min Rain = 0
KSC1 230659Z 12009KT 24/22 A2982 RMK A01 T02360220  RH  091%=      5-min Rain = 0
KSC1 230700Z 12009KT 24/22 A2982 RMK A01 T02360220  RH  091%=      5-min Rain = 0
KSC1 230701Z 13011KT 24/22 A2982 RMK A01 T02360220  RH  091%=      5-min Rain = 0
KSC1 230702Z 13010KT 24/22 A2982 RMK A01 T02350220  RH  091%=      5-min Rain = 0
KSC1 230703Z 12010KT 24/22 A2982 RMK A01 T02360220  RH  091%=      5-min Rain = 0
KSC1 230704Z 12012G17KT 24/22 A2982 RMK A01 T02350220  RH  091%=      5-min Rain = 0
KSC1 230705Z 13011KT 24/22 A2982 RMK A01 T02360220  RH  091%=      5-min Rain = 0
KSC1 230706Z 12013KT 24/22 A2982 RMK A01 T02350220  RH  091%=      5-min Rain = 0
KSC1 230707Z 12011KT 24/22 A2982 RMK A01 T02360220  RH  091%=      5-min Rain = 0
KSC1 230708Z 12010G15KT 24/22 A2982 RMK A01 T02350219  RH  091%=      5-min Rain = 0
KSC1 230709Z 12009KT 24/22 A2982 RMK A01 T02360220  RH  091%=      5-min Rain = 0
KSC1 230710Z 12012KT 24/22 A2982 RMK A01 T02350220  RH  091%=      5-min Rain = 0
KSC1 230711Z 12011KT 24/22 A2982 RMK A01 T02350220  RH  091%=      5-min Rain = 0
KSC1 230712Z 12010KT 24/22 A2982 RMK A01 T02350220  RH  091%=      5-min Rain = 0
KSC1 230713Z 12010KT 24/22 A2982 RMK A01 T02350220  RH  091%=      5-min Rain = 0
KSC1 230714Z 12010KT 24/22 A2982 RMK A01 T02350220  RH  092%=      5-min Rain = 0
KSC1 230715Z 12010KT 23/22 A2982 RMK A01 T02340220  RH  092%=      5-min Rain = 0
KSC1 230716Z 12010KT 23/22 A2982 RMK A01 T02340221  RH  092%=      5-min Rain = 0
KSC1 230717Z 12012KT 23/22 A2982 RMK A01 T02340221  RH  092%=      5-min Rain = 0
KSC1 230718Z 12010KT 23/22 A2982 RMK A01 T02340221  RH  092%=      5-min Rain = 0
KSC1 230719Z 12011KT 23/22 A2982 RMK A01 T02340220  RH  092%=      5-min Rain = 0
KSC1 230720Z 11012KT 23/22 A2981 RMK A01 T02340221  RH  092%=      5-min Rain = 0
KSC1 230721Z 12015KT 23/22 A2981 RMK A01 T02340221  RH  092%=      5-min Rain = 0
KSC1 230722Z 12012KT 24/22 A2981 RMK A01 T02350221  RH  092%=      5-min Rain = 0
KSC1 230723Z 12012KT 24/22 A2981 RMK A01 T02350221  RH  091%=      5-min Rain = 0
KSC1 230724Z 12012KT 24/22 A2981 RMK A01 T02350221  RH  092%=      5-min Rain = 0
KSC1 230725Z 12012KT 24/22 A2981 RMK A01 T02350221  RH  092%=      5-min Rain = 0
KSC1 230726Z 12013KT 24/22 A2981 RMK A01 T02350221  RH  092%=      5-min Rain = 0
KSC1 230727Z 12011KT 24/22 A2981 RMK A01 T02350221  RH  092%=      5-min Rain = 0
KSC1 230728Z 13012G17KT 24/22 A2981 RMK A01 T02350221  RH  092%=      5-min Rain = 0
KSC1 230729Z 12012KT 24/22 A2981 RMK A01 T02350222  RH  092%=      5-min Rain = 0
KSC1 230730Z 12013KT 24/22 A2981 RMK A01 T02350222  RH  092%=      5-min Rain = 0
KSC1 230731Z 12011KT 24/22 A2981 RMK A01 T02350222  RH  092%=      5-min Rain = 0
KSC1 230732Z 12010KT 24/22 A2981 RMK A01 T02350222  RH  092%=      5-min Rain = 0
KSC1 230733Z 12011KT 24/22 A2981 RMK A01 T02350222  RH  092%=      5-min Rain = 0
KSC1 230734Z 13012KT 23/22 A2981 RMK A01 T02340222  RH  093%=      5-min Rain = 0
KSC1 230735Z 12015KT 23/22 A2981 RMK A01 T02340222  RH  093%=      5-min Rain = 0
KSC1 230736Z 12013KT 23/22 A2981 RMK A01 T02340222  RH  093%=      5-min Rain = 0
KSC1 230737Z 12012KT 23/22 A2982 RMK A01 T02340222  RH  093%=      5-min Rain = 0
KSC1 230738Z 12010KT 23/22 A2982 RMK A01 T02340222  RH  093%=      5-min Rain = 0
KSC1 230739Z 13011KT 23/22 A2981 RMK A01 T02340222  RH  093%=      5-min Rain = 0
KSC1 230740Z 13012KT 23/22 A2981 RMK A01 T02340222  RH  093%=      5-min Rain = 0
KSC1 230741Z 12013KT 23/22 A2981 RMK A01 T02340222  RH  093%=      5-min Rain = 0
KSC1 230742Z 12011KT 23/22 A2981 RMK A01 T02340222  RH  093%=      5-min Rain = 0
KSC1 230743Z 13010KT 23/22 A2982 RMK A01 T02340222  RH  093%=      5-min Rain = 0
KSC1 230744Z 13011KT 23/22 A2982 RMK A01 T02340222  RH  093%=      5-min Rain = 0
KSC1 230745Z 12010KT 23/22 A2982 RMK A01 T02340222  RH  093%=      5-min Rain = 0
KSC1 230746Z 13011KT 23/22 A2981 RMK A01 T02330222  RH  094%=      5-min Rain = 0
KSC1 230747Z 12010KT 23/22 A2982 RMK A01 T02330223  RH  094%=      5-min Rain = 0
KSC1 230748Z 13010KT 23/22 A2981 RMK A01 T02330223  RH  094%=      5-min Rain = 0
KSC1 230749Z 12010KT 23/22 A2982 RMK A01 T02330223  RH  094%=      5-min Rain = 0
KSC1 230750Z 12012KT 23/22 A2982 RMK A01 T02330222  RH  094%=      5-min Rain = 0
KSC1 230751Z 13009KT 23/22 A2982 RMK A01 T02330222  RH  094%=      5-min Rain = 0
KSC1 230752Z 13012KT 23/22 A2982 RMK A01 T02330222  RH  094%=      5-min Rain = 0
KSC1 230753Z 13010KT 23/22 A2982 RMK A01 T02320223  RH  094%=      5-min Rain = 0
KSC1 230754Z 13011G16KT 23/22 A2982 RMK A01 T02330223  RH  094%=      5-min Rain = 0
KSC1 230755Z 13009KT 23/22 A2982 RMK A01 T02320222  RH  094%=      5-min Rain = 0
KSC1 230756Z 13012KT 23/22 A2982 RMK A01 T02320222  RH  094%=      5-min Rain = 0
KSC1 230757Z 13011KT 23/22 A2982 RMK A01 T02320223  RH  094%=      5-min Rain = 0
KSC1 230758Z 13011KT 23/22 A2982 RMK A01 T02320222  RH  094%=      5-min Rain = 0
KSC1 230759Z 13012KT 23/22 A2982 RMK A01 T02320223  RH  094%=      5-min Rain = 0
KSC1 230800Z 12011KT 23/22 A2982 RMK A01 T02320223  RH  095%=      5-min Rain = 0
KSC1 230801Z 12013KT 23/22 A2982 RMK A01 T02320223  RH  094%=      5-min Rain = 0
KSC1 230802Z 13012KT 23/22 A2982 RMK A01 T02320223  RH  094%=      5-min Rain = 0
KSC1 230803Z 13011KT 23/22 A2982 RMK A01 T02320223  RH  094%=      5-min Rain = 0
KSC1 230804Z 13009KT 23/22 A2982 RMK A01 T02320223  RH  094%=      5-min Rain = 0
KSC1 230805Z 13010G15KT 23/22 A2982 RMK A01 T02320223  RH  094%=      5-min Rain = 0
KSC1 230806Z 13012KT 23/22 A2982 RMK A01 T02320223  RH  095%=      5-min Rain = 0
KSC1 230807Z 13011KT 23/22 A2982 RMK A01 T02310223  RH  095%=      5-min Rain = 0
KSC1 230808Z 12012KT 23/22 A2982 RMK A01 T02310223  RH  095%=      5-min Rain = 0
KSC1 230809Z 13013KT 23/22 A2982 RMK A01 T02310223  RH  095%=      5-min Rain = 0
KSC1 230810Z 13011KT 23/22 A2982 RMK A01 T02320223  RH  095%=      5-min Rain = 0
KSC1 230811Z 13010KT 23/22 A2982 RMK A01 T02320223  RH  094%=      5-min Rain = 0
KSC1 230812Z 12012KT 23/22 A2982 RMK A01 T02320223  RH  095%=      5-min Rain = 0
KSC1 230813Z 13010KT 23/22 A2982 RMK A01 T02320223  RH  095%=      5-min Rain = 0
KSC1 230814Z 13011KT 23/22 A2982 RMK A01 T02320224  RH  095%=      5-min Rain = 0
KSC1 230815Z 13010G15KT 23/22 A2982 RMK A01 T02310223  RH  095%=      5-min Rain = 0
KSC1 230816Z 13011G16KT 23/22 A2982 RMK A01 T02310223  RH  095%=      5-min Rain = 0
KSC1 230817Z 13010KT 23/22 A2982 RMK A01 T02310223  RH  095%=      5-min Rain = 0
KSC1 230818Z 13012G18KT 23/22 A2981 RMK A01 T02310223  RH  095%=      5-min Rain = 0
KSC1 230819Z 13012KT 23/22 A2982 RMK A01 T02310224  RH  095%=      5-min Rain = 0
KSC1 230820Z 13011KT 23/22 A2982 RMK A01 T02310223  RH  095%=      5-min Rain = 0
KSC1 230821Z 13011KT 23/22 A2982 RMK A01 T02310223  RH  095%=      5-min Rain = 0
KSC1 230822Z 12011KT 23/22 A2982 RMK A01 T02310223  RH  095%=      5-min Rain = 0
KSC1 230823Z 13012G17KT 23/22 A2982 RMK A01 T02320223  RH  095%=      5-min Rain = 0
KSC1 230824Z 14012G17KT 23/22 A2982 RMK A01 T02310223  RH  095%=      5-min Rain = 0
KSC1 230825Z 13010G15KT 23/22 A2982 RMK A01 T02320223  RH  095%=      5-min Rain = 0
KSC1 230826Z 13013KT 23/22 A2982 RMK A01 T02320222  RH  094%=      5-min Rain = 0
KSC1 230827Z 13013G18KT 23/22 A2982 RMK A01 T02320222  RH  094%=      5-min Rain = 0
KSC1 230828Z 13013KT 23/22 A2982 RMK A01 T02320222  RH  094%=      5-min Rain = 0
KSC1 230829Z 13014KT 23/22 A2982 RMK A01 T02330221  RH  093%=      5-min Rain = 0
KSC1 230830Z 13013G18KT 23/22 A2982 RMK A01 T02330221  RH  093%=      5-min Rain = 0
KSC1 230831Z 14012KT 23/22 A2982 RMK A01 T02330220  RH  092%=      5-min Rain = 0
KSC1 230832Z 13015KT 23/22 A2982 RMK A01 T02330220  RH  092%=      5-min Rain = 0
KSC1 230833Z 14012KT 23/22 A2982 RMK A01 T02340220  RH  092%=      5-min Rain = 0
KSC1 230834Z 13011G16KT 23/22 A2982 RMK A01 T02340220  RH  092%=      5-min Rain = 0
KSC1 230835Z 13012G17KT 23/22 A2982 RMK A01 T02340220  RH  092%=      5-min Rain = 0
KSC1 230836Z 13014KT 23/22 A2982 RMK A01 T02340220  RH  092%=      5-min Rain = 0
KSC1 230837Z 13013G18KT 23/22 A2982 RMK A01 T02340220  RH  092%=      5-min Rain = 0
KSC1 230838Z 13011G16KT 23/22 A2982 RMK A01 T02340219  RH  092%=      5-min Rain = 0
KSC1 230839Z 13012KT 23/22 A2982 RMK A01 T02340220  RH  092%=      5-min Rain = 0
KSC1 230840Z 13011KT 23/22 A2982 RMK A01 T02330220  RH  092%=      5-min Rain = 0
KSC1 230841Z 13013KT 23/22 A2982 RMK A01 T02320219  RH  092%=      5-min Rain = 0
KSC1 230842Z 13013KT 23/22 A2982 RMK A01 T02320220  RH  092%=      5-min Rain = 0
KSC1 230843Z 13011G16KT 23/22 A2982 RMK A01 T02320220  RH  092%=      5-min Rain = 0
KSC1 230844Z 13010KT 23/22 A2982 RMK A01 T02330219  RH  092%=      5-min Rain = 0
KSC1 230845Z 13010KT 23/22 A2982 RMK A01 T02320219  RH  093%=      5-min Rain = 0
KSC1 230846Z 13009KT 23/22 A2982 RMK A01 T02310220  RH  093%=      5-min Rain = 0
KSC1 230847Z 14012KT 23/22 A2982 RMK A01 T02310220  RH  093%=      5-min Rain = 0
KSC1 230848Z 13013KT 23/22 A2982 RMK A01 T02310220  RH  093%=      5-min Rain = 0
KSC1 230849Z 13011G16KT 23/22 A2982 RMK A01 T02310220  RH  093%=      5-min Rain = 0
KSC1 230850Z 13012KT 23/22 A2982 RMK A01 T02320220  RH  093%=      5-min Rain = 0
KSC1 230851Z 13011KT 23/22 A2982 RMK A01 T02320220  RH  093%=      5-min Rain = 0
KSC1 230852Z 13011KT 23/22 A2982 RMK A01 T02330220  RH  093%=      5-min Rain = 0
KSC1 230853Z 13012KT 23/22 A2982 RMK A01 T02330220  RH  092%=      5-min Rain = 0
KSC1 230854Z 13011KT 23/22 A2982 RMK A01 T02330220  RH  092%=      5-min Rain = 0
KSC1 230855Z 14010KT 23/22 A2982 RMK A01 T02330220  RH  092%=      5-min Rain = 0
KSC1 230856Z 13010KT 23/22 A2982 RMK A01 T02340220  RH  092%=      5-min Rain = 0
KSC1 230857Z 13011KT 23/22 A2982 RMK A01 T02340220  RH  092%=      5-min Rain = 0
KSC1 230858Z 13009G14KT 23/22 A2982 RMK A01 T02340219  RH  092%=      5-min Rain = 0
KSC1 230859Z 13010KT 23/22 A2982 RMK A01 T02340220  RH  092%=      5-min Rain = 0
KSC1 230900Z 13010KT 23/22 A2982 RMK A01 T02340219  RH  091%=      5-min Rain = 0
KSC1 230901Z 13010KT 23/22 A2982 RMK A01 T02340219  RH  091%=      5-min Rain = 0
KSC1 230902Z 13009KT 23/22 A2982 RMK A01 T02340219  RH  091%=      5-min Rain = 0
KSC1 230903Z 13010KT 23/22 A2982 RMK A01 T02340219  RH  091%=      5-min Rain = 0
KSC1 230904Z 13010G15KT 23/22 A2982 RMK A01 T02340219  RH  091%=      5-min Rain = 0
KSC1 230905Z 13011KT 23/22 A2982 RMK A01 T02340218  RH  091%=      5-min Rain = 0
KSC1 230906Z 12014G19KT 23/22 A2982 RMK A01 T02340218  RH  091%=      5-min Rain = 0
KSC1 230907Z 13014KT 24/22 A2982 RMK A01 T02350217  RH  090%=      5-min Rain = 0
KSC1 230908Z 13010G17KT 24/22 A2982 RMK A01 T02360216  RH  089%=      5-min Rain = 0
KSC1 230909Z 13011KT 24/22 A2982 RMK A01 T02370217  RH  089%=      5-min Rain = 0
KSC1 230910Z 13014G20KT 24/22 A2982 RMK A01 T02360217  RH  089%=      5-min Rain = 0
KSC1 230911Z 13012KT 24/22 A2982 RMK A01 T02360216  RH  088%=      5-min Rain = 0
KSC1 230912Z 13014KT 24/22 A2982 RMK A01 T02360216  RH  088%=      5-min Rain = 0
KSC1 230913Z 13012G17KT 24/22 A2982 RMK A01 T02360216  RH  088%=      5-min Rain = 0
KSC1 230914Z 13012KT 24/22 A2982 RMK A01 T02370216  RH  088%=      5-min Rain = 0
KSC1 230915Z 13013G18KT 24/22 A2982 RMK A01 T02360215  RH  088%=      5-min Rain = 0
KSC1 230916Z 13013KT 24/22 A2982 RMK A01 T02360215  RH  088%=      5-min Rain = 0
KSC1 230917Z 12014KT 24/22 A2982 RMK A01 T02360215  RH  088%=      5-min Rain = 0
KSC1 230918Z 13014KT 24/22 A2982 RMK A01 T02360215  RH  088%=      5-min Rain = 0
KSC1 230919Z 13012KT 24/22 A2982 RMK A01 T02360215  RH  088%=      5-min Rain = 0
KSC1 230920Z 14011KT 24/22 A2982 RMK A01 T02360215  RH  088%=      5-min Rain = 0
KSC1 230921Z 13013G18KT 24/21 A2982 RMK A01 T02360214  RH  088%=      5-min Rain = 0
KSC1 230922Z 13013KT 24/21 A2982 RMK A01 T02350214  RH  088%=      5-min Rain = 0
KSC1 230923Z 13011KT 24/21 A2982 RMK A01 T02360214  RH  088%=      5-min Rain = 0
KSC1 230924Z 13010KT 24/21 A2982 RMK A01 T02350214  RH  088%=      5-min Rain = 0
KSC1 230925Z 13013KT 24/21 A2982 RMK A01 T02350214  RH  088%=      5-min Rain = 0
KSC1 230926Z 13012G17KT 24/21 A2982 RMK A01 T02360214  RH  088%=      5-min Rain = 0
KSC1 230927Z 13011KT 24/21 A2982 RMK A01 T02360214  RH  088%=      5-min Rain = 0
KSC1 230928Z 13013G18KT 24/21 A2982 RMK A01 T02360214  RH  088%=      5-min Rain = 0
KSC1 230929Z 13011G16KT 24/21 A2982 RMK A01 T02360214  RH  087%=      5-min Rain = 0
KSC1 230930Z 13011KT 24/21 A2982 RMK A01 T02360214  RH  087%=      5-min Rain = 0
KSC1 230931Z 13014KT 24/21 A2982 RMK A01 T02370214  RH  087%=      5-min Rain = 0
KSC1 230932Z 13011KT 24/21 A2982 RMK A01 T02370214  RH  087%=      5-min Rain = 0
KSC1 230933Z 13013KT 24/21 A2982 RMK A01 T02370214  RH  087%=      5-min Rain = 0
KSC1 230934Z 13012G17KT 24/21 A2982 RMK A01 T02370214  RH  086%=      5-min Rain = 0
KSC1 230935Z 13013KT 24/21 A2982 RMK A01 T02370213  RH  086%=      5-min Rain = 0
KSC1 230936Z 13015KT 24/21 A2982 RMK A01 T02370213  RH  086%=      5-min Rain = 0
KSC1 230937Z 13012KT 24/21 A2982 RMK A01 T02380213  RH  086%=      5-min Rain = 0
KSC1 230938Z 13013KT 24/21 A2982 RMK A01 T02380213  RH  086%=      5-min Rain = 0
KSC1 230939Z 13012KT 24/21 A2982 RMK A01 T02380213  RH  086%=      5-min Rain = 0
KSC1 230940Z 13013KT 24/21 A2982 RMK A01 T02380213  RH  086%=      5-min Rain = 0
KSC1 230941Z 13012G17KT 24/21 A2982 RMK A01 T02370213  RH  086%=      5-min Rain = 0
KSC1 230942Z 13011KT 24/21 A2982 RMK A01 T02380214  RH  086%=      5-min Rain = 0
KSC1 230943Z 13014KT 24/21 A2982 RMK A01 T02370213  RH  086%=      5-min Rain = 0
KSC1 230944Z 13014KT 24/21 A2982 RMK A01 T02370213  RH  086%=      5-min Rain = 0
KSC1 230945Z 13013KT 24/21 A2982 RMK A01 T02370213  RH  086%=      5-min Rain = 0
KSC1 230946Z 13011KT 24/21 A2982 RMK A01 T02370213  RH  086%=      5-min Rain = 0
KSC1 230947Z 12016KT 24/21 A2982 RMK A01 T02370214  RH  086%=      5-min Rain = 0
KSC1 230948Z 12011KT 24/21 A2982 RMK A01 T02380213  RH  086%=      5-min Rain = 0
KSC1 230949Z 13011KT 24/21 A2982 RMK A01 T02380214  RH  086%=      5-min Rain = 0
KSC1 230950Z 13014KT 24/21 A2982 RMK A01 T02380214  RH  086%=      5-min Rain = 0
KSC1 230951Z 13014G20KT 24/21 A2982 RMK A01 T02380214  RH  086%=      5-min Rain = 0
KSC1 230952Z 13014G19KT 24/21 A2982 RMK A01 T02380214  RH  086%=      5-min Rain = 0
KSC1 230953Z 13012KT 24/21 A2982 RMK A01 T02390214  RH  086%=      5-min Rain = 0
KSC1 230954Z 12012KT 24/21 A2982 RMK A01 T02390214  RH  086%=      5-min Rain = 0
KSC1 230955Z 13013G18KT 24/21 A2982 RMK A01 T02390214  RH  086%=      5-min Rain = 0
KSC1 230956Z 13012G17KT 24/21 A2982 RMK A01 T02390214  RH  086%=      5-min Rain = 0
KSC1 230957Z 13013KT 24/21 A2982 RMK A01 T02390214  RH  086%=      5-min Rain = 0
KSC1 230958Z 13014KT 24/21 A2982 RMK A01 T02390214  RH  086%=      5-min Rain = 0
KSC1 230959Z 13015G21KT 24/22 A2982 RMK A01 T02390215  RH  086%=      5-min Rain = 0
KSC1 231000Z 13017KT 24/21 A2982 RMK A01 T02390214  RH  086%=      5-min Rain = 0
KSC1 231001Z 13016G23KT 24/21 A2982 RMK A01 T02400214  RH  086%=      5-min Rain = 0
KSC1 231002Z 14013KT 24/21 A2982 RMK A01 T02400214  RH  085%=      5-min Rain = 0
KSC1 231003Z 13012G17KT 24/22 A2982 RMK A01 T02410215  RH  085%=      5-min Rain = 0
KSC1 231004Z 13011KT 24/22 A2982 RMK A01 T02400215  RH  086%=      5-min Rain = 0
KSC1 231005Z 13010KT 24/22 A2982 RMK A01 T02400215  RH  086%=      5-min Rain = 0
KSC1 231006Z 13012G19KT 24/22 A2982 RMK A01 T02400216  RH  086%=      5-min Rain = 0
KSC1 231007Z 13014G20KT 24/22 A2982 RMK A01 T02400216  RH  086%=      5-min Rain = 0
KSC1 231008Z 13012KT 24/22 A2982 RMK A01 T02400216  RH  086%=      5-min Rain = 0
KSC1 231009Z 13015G20KT 24/22 A2982 RMK A01 T02400215  RH  086%=      5-min Rain = 0
KSC1 231010Z 13018KT 24/22 A2982 RMK A01 T02410216  RH  086%=      5-min Rain = 0
KSC1 231011Z 13014KT 24/22 A2982 RMK A01 T02410215  RH  085%=      5-min Rain = 0
KSC1 231012Z 13014KT 24/22 A2982 RMK A01 T02410215  RH  085%=      5-min Rain = 0
KSC1 231013Z 13014KT 24/22 A2982 RMK A01 T02420215  RH  085%=      5-min Rain = 0
KSC1 231014Z 13015G22KT 24/22 A2982 RMK A01 T02420216  RH  085%=      5-min Rain = 0
KSC1 231015Z 14015G20KT 24/22 A2982 RMK A01 T02420216  RH  085%=      5-min Rain = 0
KSC1 231016Z 13015KT 24/22 A2982 RMK A01 T02420216  RH  085%=      5-min Rain = 0
KSC1 231017Z 13015G20KT 24/22 A2982 RMK A01 T02420216  RH  085%=      5-min Rain = 0
KSC1 231018Z 13015KT 24/22 A2982 RMK A01 T02420216  RH  085%=      5-min Rain = 0
KSC1 231019Z 14014KT 24/22 A2982 RMK A01 T02420216  RH  085%=      5-min Rain = 0
KSC1 231020Z 13015G20KT 24/22 A2982 RMK A01 T02420216  RH  086%=      5-min Rain = 0
KSC1 231021Z 13012KT 24/22 A2982 RMK A01 T02420216  RH  086%=      5-min Rain = 0
KSC1 231022Z 13013KT 24/22 A2982 RMK A01 T02410216  RH  086%=      5-min Rain = 0
KSC1 231023Z 13017KT 24/22 A2982 RMK A01 T02410217  RH  086%=      5-min Rain = 0
KSC1 231024Z 13013KT 24/22 A2982 RMK A01 T02410216  RH  086%=      5-min Rain = 0
KSC1 231025Z 13017G22KT 24/22 A2982 RMK A01 T02410216  RH  086%=      5-min Rain = 0
KSC1 231026Z 13018G23KT 24/22 A2982 RMK A01 T02410216  RH  086%=      5-min Rain = 0
KSC1 231027Z 13014KT 24/22 A2983 RMK A01 T02420216  RH  085%=      5-min Rain = 0
KSC1 231028Z 13018KT 24/22 A2982 RMK A01 T02420216  RH  085%=      5-min Rain = 0
KSC1 231029Z 13014G20KT 24/22 A2983 RMK A01 T02420216  RH  085%=      5-min Rain = 0
KSC1 231030Z 13015G20KT 24/22 A2983 RMK A01 T02420216  RH  085%=      5-min Rain = 0
KSC1 231031Z 13016KT 24/22 A2983 RMK A01 T02420216  RH  085%=      5-min Rain = 0
KSC1 231032Z 14014KT 24/22 A2983 RMK A01 T02420216  RH  085%=      5-min Rain = 0
KSC1 231033Z 13011G19KT 24/22 A2983 RMK A01 T02420216  RH  085%=      5-min Rain = 0
KSC1 231034Z 13011KT 24/22 A2983 RMK A01 T02420216  RH  085%=      5-min Rain = 0
KSC1 231035Z 13013G18KT 24/22 A2983 RMK A01 T02420216  RH  086%=      5-min Rain = 0
KSC1 231036Z 13012KT 24/22 A2983 RMK A01 T02420216  RH  086%=      5-min Rain = 0
KSC1 231037Z 14011KT 24/22 A2983 RMK A01 T02420216  RH  086%=      5-min Rain = 0
KSC1 231038Z 13015G21KT 24/22 A2983 RMK A01 T02410216  RH  086%=      5-min Rain = 0
KSC1 231039Z 13015KT 24/22 A2983 RMK A01 T02420216  RH  085%=      5-min Rain = 0
KSC1 231040Z 13011KT 24/22 A2983 RMK A01 T02420215  RH  085%=      5-min Rain = 0
KSC1 231041Z 13011KT 24/22 A2983 RMK A01 T02420215  RH  085%=      5-min Rain = 0
KSC1 231042Z 14015KT 24/22 A2983 RMK A01 T02420215  RH  085%=      5-min Rain = 0
KSC1 231043Z 13012KT 24/22 A2983 RMK A01 T02420215  RH  085%=      5-min Rain = 0
KSC1 231044Z 13010KT 24/22 A2983 RMK A01 T02420215  RH  085%=      5-min Rain = 0
KSC1 231045Z 13013KT 24/22 A2983 RMK A01 T02420215  RH  085%=      5-min Rain = 0
KSC1 231046Z 14015G21KT 24/22 A2983 RMK A01 T02420215  RH  085%=      5-min Rain = 0
KSC1 231047Z 14015KT 24/21 A2983 RMK A01 T02420214  RH  084%=      5-min Rain = 0
KSC1 231048Z 13016G21KT 24/21 A2983 RMK A01 T02420214  RH  084%=      5-min Rain = 0
KSC1 231049Z 14016KT 24/21 A2983 RMK A01 T02430213  RH  084%=      5-min Rain = 0
KSC1 231050Z 14015G20KT 24/21 A2983 RMK A01 T02430213  RH  083%=      5-min Rain = 0
KSC1 231051Z 14018G23KT 24/21 A2984 RMK A01 T02430212  RH  083%=      5-min Rain = 0
KSC1 231052Z 14019G24KT 24/21 A2984 RMK A01 T02440212  RH  082%=      5-min Rain = 0
KSC1 231053Z 14016G21KT 24/21 A2984 RMK A01 T02440212  RH  082%=      5-min Rain = 0
KSC1 231054Z 14014KT 24/21 A2984 RMK A01 T02440212  RH  082%=      5-min Rain = 0
KSC1 231055Z 13016KT 24/21 A2984 RMK A01 T02440212  RH  082%=      5-min Rain = 0
KSC1 231056Z 14013G18KT 24/21 A2984 RMK A01 T02440212  RH  082%=      5-min Rain = 0
KSC1 231057Z 14014KT 24/21 A2984 RMK A01 T02440212  RH  082%=      5-min Rain = 0
KSC1 231058Z 14014KT 24/21 A2984 RMK A01 T02440212  RH  082%=      5-min Rain = 0
KSC1 231059Z 14015G20KT 24/21 A2984 RMK A01 T02440211  RH  082%=      5-min Rain = 0
KSC1 231100Z 14015KT 24/21 A2984 RMK A01 T02440211  RH  082%=      5-min Rain = 0
KSC1 231101Z 13016KT 24/21 A2984 RMK A01 T02440211  RH  082%=      5-min Rain = 0
KSC1 231102Z 14013KT 24/21 A2984 RMK A01 T02440210  RH  082%=      5-min Rain = 0
KSC1 231103Z 14011KT 24/21 A2984 RMK A01 T02440211  RH  082%=      5-min Rain = 0
KSC1 231104Z 14015G21KT 24/21 A2984 RMK A01 T02440211  RH  082%=      5-min Rain = 0
KSC1 231105Z 14013KT 24/21 A2984 RMK A01 T02440210  RH  081%=      5-min Rain = 0
KSC1 231106Z 13012G17KT 24/21 A2984 RMK A01 T02440210  RH  081%=      5-min Rain = 0
KSC1 231107Z 15019G27KT 24/21 A2984 RMK A01 T02440209  RH  081%=      5-min Rain = 0
KSC1 231108Z 14016G22KT 24/21 A2984 RMK A01 T02440208  RH  080%=      5-min Rain = 0
KSC1 231109Z 15015G21KT 25/21 A2984 RMK A01 T02450208  RH  080%=      5-min Rain = 0
KSC1 231110Z 15013KT 25/21 A2984 RMK A01 T02450208  RH  080%=      5-min Rain = 0
KSC1 231111Z 14014G19KT 25/21 A2984 RMK A01 T02450208  RH  080%=      5-min Rain = 0
KSC1 231112Z 14018KT 25/21 A2984 RMK A01 T02450208  RH  080%=      5-min Rain = 0
KSC1 231113Z 14015G21KT 25/21 A2984 RMK A01 T02450207  RH  080%=      5-min Rain = 0
KSC1 231114Z 14015G22KT 25/21 A2984 RMK A01 T02450207  RH  079%=      5-min Rain = 0
KSC1 231115Z 14015G20KT 25/21 A2984 RMK A01 T02450207  RH  079%=      5-min Rain = 0
KSC1 231116Z 15011KT 25/21 A2984 RMK A01 T02450207  RH  079%=      5-min Rain = 0
KSC1 231117Z 14012G18KT 25/21 A2984 RMK A01 T02450207  RH  080%=      5-min Rain = 0
KSC1 231118Z 14016KT 25/21 A2984 RMK A01 T02450207  RH  080%=      5-min Rain = 0
KSC1 231119Z 15013G18KT 24/21 A2984 RMK A01 T02440206  RH  079%=      5-min Rain = 0
KSC1 231120Z 14016G21KT 24/21 A2984 RMK A01 T02440206  RH  079%=      5-min Rain = 0
KSC1 231121Z 15020KT 24/21 A2984 RMK A01 T02440206  RH  079%=      5-min Rain = 0
KSC1 231122Z 14015KT 25/21 A2985 RMK A01 T02450205  RH  079%=      5-min Rain = 0
KSC1 231123Z 15013KT 25/21 A2985 RMK A01 T02450206  RH  079%=      5-min Rain = 0
KSC1 231124Z 14015G22KT 25/21 A2985 RMK A01 T02450206  RH  079%=      5-min Rain = 0
KSC1 231125Z 14013KT 24/21 A2985 RMK A01 T02440205  RH  079%=      5-min Rain = 0
KSC1 231126Z 14011KT 24/21 A2985 RMK A01 T02440206  RH  079%=      5-min Rain = 0
KSC1 231127Z 15012KT 24/21 A2985 RMK A01 T02440206  RH  079%=      5-min Rain = 0
KSC1 231128Z 15013G19KT 24/21 A2985 RMK A01 T02440206  RH  079%=      5-min Rain = 0
KSC1 231129Z 15016G23KT 24/21 A2985 RMK A01 T02430205  RH  079%=      5-min Rain = 0
KSC1 231130Z 15015G21KT 24/21 A2985 RMK A01 T02440205  RH  079%=      5-min Rain = 0
KSC1 231131Z 15018G23KT 24/21 A2985 RMK A01 T02430205  RH  079%=      5-min Rain = 0
KSC1 231132Z 15016KT 24/20 A2985 RMK A01 T02430204  RH  079%=      5-min Rain = 0
KSC1 231133Z 15015KT 24/21 A2985 RMK A01 T02440205  RH  079%=      5-min Rain = 0
KSC1 231134Z 15016G22KT 24/21 A2985 RMK A01 T02430205  RH  079%=      5-min Rain = 0
KSC1 231135Z 15021KT 24/20 A2985 RMK A01 T02430204  RH  079%=      5-min Rain = 0
KSC1 231136Z 16019KT 24/20 A2985 RMK A01 T02430204  RH  079%=      5-min Rain = 0
KSC1 231137Z 16015G21KT 24/20 A2985 RMK A01 T02430204  RH  079%=      5-min Rain = 0
KSC1 231138Z 14011KT 24/20 A2985 RMK A01 T02430204  RH  079%=      5-min Rain = 0
KSC1 231139Z 15016KT 24/21 A2985 RMK A01 T02430205  RH  079%=      5-min Rain = 0
KSC1 231140Z 15016G21KT 24/20 A2985 RMK A01 T02430204  RH  079%=      5-min Rain = 0
KSC1 231141Z 15016KT 24/20 A2985 RMK A01 T02430204  RH  079%=      5-min Rain = 0
KSC1 231142Z 15014KT 24/20 A2985 RMK A01 T02430204  RH  079%=      5-min Rain = 0
KSC1 231143Z 14014G20KT 24/20 A2985 RMK A01 T02430204  RH  079%=      5-min Rain = 0
KSC1 231144Z 15015G20KT 24/20 A2985 RMK A01 T02430204  RH  079%=      5-min Rain = 0
KSC1 231145Z 14017KT 24/20 A2985 RMK A01 T02430204  RH  079%=      5-min Rain = 0
KSC1 231146Z 14015KT 24/20 A2985 RMK A01 T02430204  RH  079%=      5-min Rain = 0
KSC1 231147Z 15018KT 24/20 A2985 RMK A01 T02430204  RH  079%=      5-min Rain = 0
KSC1 231148Z 15015KT 24/20 A2985 RMK A01 T02430204  RH  079%=      5-min Rain = 0
KSC1 231149Z 15012KT 24/20 A2985 RMK A01 T02430204  RH  079%=      5-min Rain = 0
KSC1 231150Z 15015KT 24/20 A2985 RMK A01 T02430204  RH  079%=      5-min Rain = 0
KSC1 231151Z 14012KT 24/20 A2985 RMK A01 T02420204  RH  079%=      5-min Rain = 0
KSC1 231152Z 14015G21KT 24/20 A2985 RMK A01 T02420204  RH  079%=      5-min Rain = 0
KSC1 231153Z 14014KT 24/20 A2985 RMK A01 T02420204  RH  079%=      5-min Rain = 0
KSC1 231154Z 15013KT 24/20 A2985 RMK A01 T02420204  RH  079%=      5-min Rain = 0
KSC1 231155Z 15015G23KT 24/20 A2985 RMK A01 T02420204  RH  079%=      5-min Rain = 0
KSC1 231156Z 14016KT 24/20 A2985 RMK A01 T02410204  RH  079%=      5-min Rain = 0
KSC1 231157Z 14015G20KT 24/20 A2985 RMK A01 T02420204  RH  079%=      5-min Rain = 0
KSC1 231158Z 14011KT 24/20 A2985 RMK A01 T02410204  RH  079%=      5-min Rain = 0
KSC1 231159Z 14017G22KT 24/20 A2985 RMK A01 T02420204  RH  080%=      5-min Rain = 0
KSC1 231200Z 14017G23KT 24/20 A2986 RMK A01 T02420204  RH  080%=      5-min Rain = 0
KSC1 231201Z 15017G22KT 24/20 A2985 RMK A01 T02410203  RH  079%=      5-min Rain = 0
KSC1 231202Z 15012KT 24/20 A2985 RMK A01 T02420204  RH  079%=      5-min Rain = 0
KSC1 231203Z 14010KT 24/20 A2985 RMK A01 T02410204  RH  080%=      5-min Rain = 0
KSC1 231204Z 14012G18KT 24/20 A2986 RMK A01 T02410204  RH  080%=      5-min Rain = 0
KSC1 231205Z 14016G22KT 24/20 A2985 RMK A01 T02410204  RH  080%=      5-min Rain = 0
KSC1 231206Z 14013KT 24/20 A2985 RMK A01 T02400204  RH  080%=      5-min Rain = 0
KSC1 231207Z 13014KT 24/20 A2985 RMK A01 T02410204  RH  080%=      5-min Rain = 0
KSC1 231208Z 14012KT 24/20 A2985 RMK A01 T02400204  RH  080%=      5-min Rain = 0
KSC1 231209Z 14012KT 24/20 A2985 RMK A01 T02400204  RH  080%=      5-min Rain = 0
KSC1 231210Z 14013G18KT 24/20 A2985 RMK A01 T02400204  RH  080%=      5-min Rain = 0
KSC1 231211Z 14014KT 24/20 A2986 RMK A01 T02400204  RH  080%=      5-min Rain = 0
KSC1 231212Z 14016G21KT 24/20 A2985 RMK A01 T02400204  RH  080%=      5-min Rain = 0
KSC1 231213Z 14015G20KT 24/20 A2985 RMK A01 T02400204  RH  080%=      5-min Rain = 0
KSC1 231214Z 14014KT 24/20 A2986 RMK A01 T02400204  RH  080%=      5-min Rain = 0
KSC1 231215Z 14016G21KT 24/20 A2986 RMK A01 T02400204  RH  080%=      5-min Rain = 0
KSC1 231216Z 14015KT 24/20 A2986 RMK A01 T02400204  RH  080%=      5-min Rain = 0
KSC1 231217Z 14016G21KT 24/20 A2985 RMK A01 T02400204  RH  080%=      5-min Rain = 0
KSC1 231218Z 14015KT 24/20 A2986 RMK A01 T02400204  RH  080%=      5-min Rain = 0
KSC1 231219Z 14016G21KT 24/20 A2986 RMK A01 T02400204  RH  080%=      5-min Rain = 0
KSC1 231220Z 14013KT 24/20 A2986 RMK A01 T02400204  RH  080%=      5-min Rain = 0
KSC1 231221Z 14012G19KT 24/21 A2986 RMK A01 T02400205  RH  081%=      5-min Rain = 0
KSC1 231222Z 14009KT 24/21 A2986 RMK A01 T02400205  RH  081%=      5-min Rain = 0
KSC1 231223Z 14012KT 24/21 A2986 RMK A01 T02390205  RH  081%=      5-min Rain = 0
KSC1 231224Z 14013KT 24/20 A2986 RMK A01 T02390204  RH  081%=      5-min Rain = 0
KSC1 231225Z 14014G19KT 24/20 A2986 RMK A01 T02390204  RH  081%=      5-min Rain = 0
KSC1 231226Z 13016G21KT 24/20 A2986 RMK A01 T02390204  RH  081%=      5-min Rain = 0
KSC1 231227Z 14015G21KT 24/20 A2986 RMK A01 T02390204  RH  081%=      5-min Rain = 0
KSC1 231228Z 13014KT 24/20 A2986 RMK A01 T02390203  RH  081%=      5-min Rain = 0
KSC1 231229Z 14014KT 24/20 A2986 RMK A01 T02390203  RH  081%=      5-min Rain = 0
KSC1 231230Z 14012KT 24/20 A2986 RMK A01 T02390204  RH  081%=      5-min Rain = 0
KSC1 231231Z 14015G20KT 24/20 A2986 RMK A01 T02390204  RH  081%=      5-min Rain = 0
KSC1 231232Z 13013G18KT 24/20 A2986 RMK A01 T02390204  RH  081%=      5-min Rain = 0
KSC1 231233Z 14017G22KT 24/20 A2986 RMK A01 T02390204  RH  081%=      5-min Rain = 0
KSC1 231234Z 15014G19KT 24/20 A2986 RMK A01 T02390204  RH  081%=      5-min Rain = 0
KSC1 231235Z 14013KT 24/20 A2986 RMK A01 T02390204  RH  081%=      5-min Rain = 0
KSC1 231236Z 14013KT 24/20 A2986 RMK A01 T02390204  RH  081%=      5-min Rain = 0
KSC1 231237Z 14013KT 24/20 A2986 RMK A01 T02390204  RH  081%=      5-min Rain = 0
KSC1 231238Z 13012G17KT 24/21 A2986 RMK A01 T02390205  RH  081%=      5-min Rain = 0
KSC1 231239Z 13013KT 24/21 A2986 RMK A01 T02380205  RH  081%=      5-min Rain = 0
KSC1 231240Z 14012KT 24/21 A2986 RMK A01 T02380205  RH  081%=      5-min Rain = 0
KSC1 231241Z 14013G21KT 24/21 A2986 RMK A01 T02380205  RH  082%=      5-min Rain = 0
KSC1 231242Z 14017KT 24/21 A2986 RMK A01 T02380205  RH  081%=      5-min Rain = 0
KSC1 231243Z 14014G19KT 24/21 A2986 RMK A01 T02380205  RH  081%=      5-min Rain = 0
KSC1 231244Z 14011G16KT 24/21 A2986 RMK A01 T02380205  RH  081%=      5-min Rain = 0
KSC1 231245Z 13015KT 24/21 A2986 RMK A01 T02380205  RH  082%=      5-min Rain = 0
KSC1 231246Z 14020KT 24/21 A2986 RMK A01 T02380205  RH  082%=      5-min Rain = 0
KSC1 231247Z 15015G21KT 24/21 A2986 RMK A01 T02380205  RH  082%=      5-min Rain = 0
KSC1 231248Z 14015KT 24/20 A2987 RMK A01 T02380204  RH  082%=      5-min Rain = 0
KSC1 231249Z 14012KT 24/21 A2987 RMK A01 T02380205  RH  082%=      5-min Rain = 0
KSC1 231250Z 13010KT 24/21 A2987 RMK A01 T02380205  RH  082%=      5-min Rain = 0
KSC1 231251Z 14013KT 24/21 A2987 RMK A01 T02380206  RH  082%=      5-min Rain = 0
KSC1 231252Z 13013KT 24/21 A2986 RMK A01 T02380205  RH  082%=      5-min Rain = 0
KSC1 231253Z 14016KT 24/21 A2986 RMK A01 T02370205  RH  082%=      5-min Rain = 0
KSC1 231254Z 14014G19KT 24/21 A2986 RMK A01 T02370205  RH  082%=      5-min Rain = 0
KSC1 231255Z 14012G17KT 24/21 A2986 RMK A01 T02370205  RH  082%=      5-min Rain = 0
KSC1 231256Z 13012G19KT 24/21 A2987 RMK A01 T02370205  RH  082%=      5-min Rain = 0
KSC1 231257Z 14016KT 24/21 A2986 RMK A01 T02370205  RH  082%=      5-min Rain = 0
KSC1 231258Z 14013KT 24/21 A2987 RMK A01 T02380205  RH  082%=      5-min Rain = 0
KSC1 231259Z 14013KT 24/21 A2987 RMK A01 T02380205  RH  082%=      5-min Rain = 0
KSC1 231300Z 14014G19KT 24/21 A2986 RMK A01 T02380205  RH  082%=      5-min Rain = 0
KSC1 231301Z 13015KT 24/21 A2986 RMK A01 T02380205  RH  082%=      5-min Rain = 0
KSC1 231302Z 13018G25KT 24/21 A2987 RMK A01 T02380205  RH  082%=      5-min Rain = 0
KSC1 231303Z 14017KT 24/21 A2987 RMK A01 T02380205  RH  081%=      5-min Rain = 0
KSC1 231304Z 14016G21KT 24/20 A2987 RMK A01 T02380204  RH  081%=      5-min Rain = 0
KSC1 231305Z 14016G21KT 24/20 A2987 RMK A01 T02380204  RH  081%=      5-min Rain = 0
KSC1 231306Z 14014KT 24/21 A2987 RMK A01 T02390205  RH  081%=      5-min Rain = 0
KSC1 231307Z 13013KT 24/21 A2987 RMK A01 T02390205  RH  081%=      5-min Rain = 0
KSC1 231308Z 14012KT 24/21 A2987 RMK A01 T02390205  RH  081%=      5-min Rain = 0
KSC1 231309Z 14011KT 24/21 A2987 RMK A01 T02390206  RH  082%=      5-min Rain = 0
KSC1 231310Z 14015G22KT 24/21 A2987 RMK A01 T02390205  RH  082%=      5-min Rain = 0
KSC1 231311Z 14014KT 24/21 A2987 RMK A01 T02390205  RH  082%=      5-min Rain = 0
KSC1 231312Z 13014KT 24/21 A2987 RMK A01 T02390205  RH  081%=      5-min Rain = 0
KSC1 231313Z 14016G21KT 24/21 A2987 RMK A01 T02390205  RH  081%=      5-min Rain = 0
KSC1 231314Z 14017KT 24/20 A2987 RMK A01 T02390204  RH  081%=      5-min Rain = 0
KSC1 231315Z 13016KT 24/21 A2987 RMK A01 T02390205  RH  081%=      5-min Rain = 0
KSC1 231316Z 14014KT 24/21 A2987 RMK A01 T02390205  RH  081%=      5-min Rain = 0
KSC1 231317Z 13014G19KT 24/21 A2987 RMK A01 T02390205  RH  081%=      5-min Rain = 0
KSC1 231318Z 14013G18KT 24/21 A2987 RMK A01 T02390205  RH  081%=      5-min Rain = 0
KSC1 231319Z 13019G24KT 24/21 A2987 RMK A01 T02390205  RH  081%=      5-min Rain = 0
KSC1 231320Z 14015KT 24/20 A2987 RMK A01 T02390204  RH  081%=      5-min Rain = 0
KSC1 231321Z 14015G21KT 24/21 A2987 RMK A01 T02400205  RH  081%=      5-min Rain = 0
KSC1 231322Z 14018G24KT 24/20 A2987 RMK A01 T02400204  RH  080%=      5-min Rain = 0
KSC1 231323Z 14015KT 24/20 A2987 RMK A01 T02400204  RH  080%=      5-min Rain = 0
KSC1 231324Z 14016G22KT 24/21 A2987 RMK A01 T02400205  RH  080%=      5-min Rain = 0
KSC1 231325Z 14016G22KT 24/21 A2987 RMK A01 T02400205  RH  080%=      5-min Rain = 0
KSC1 231326Z 14018KT 24/20 A2987 RMK A01 T02400204  RH  080%=      5-min Rain = 0
KSC1 231327Z 14014KT 24/20 A2987 RMK A01 T02400204  RH  080%=      5-min Rain = 0
KSC1 231328Z 14012KT 24/21 A2987 RMK A01 T02400205  RH  081%=      5-min Rain = 0
KSC1 231329Z 13012G17KT 24/21 A2988 RMK A01 T02400205  RH  081%=      5-min Rain = 0
KSC1 231330Z 15014KT 24/21 A2988 RMK A01 T02400205  RH  081%=      5-min Rain = 0
KSC1 231331Z 14013G18KT 24/21 A2988 RMK A01 T02400205  RH  081%=      5-min Rain = 0
KSC1 231332Z 14015KT 24/21 A2988 RMK A01 T02400205  RH  081%=      5-min Rain = 0
KSC1 231333Z 14016KT 24/21 A2988 RMK A01 T02400205  RH  081%=      5-min Rain = 0
KSC1 231334Z 14016KT 24/20 A2988 RMK A01 T02400204  RH  080%=      5-min Rain = 0
KSC1 231335Z 14016G21KT 24/20 A2988 RMK A01 T02400204  RH  080%=      5-min Rain = 0
KSC1 231336Z 14013KT 24/20 A2988 RMK A01 T02400204  RH  080%=      5-min Rain = 0
KSC1 231337Z 14015G21KT 24/20 A2988 RMK A01 T02400204  RH  080%=      5-min Rain = 0
KSC1 231338Z 14015KT 24/20 A2988 RMK A01 T02400204  RH  080%=      5-min Rain = 0
KSC1 231339Z 14014KT 24/20 A2988 RMK A01 T02410204  RH  080%=      5-min Rain = 0
KSC1 231340Z 14015G20KT 24/20 A2988 RMK A01 T02410204  RH  080%=      5-min Rain = 0
KSC1 231341Z 14015G21KT 24/20 A2988 RMK A01 T02410204  RH  080%=      5-min Rain = 0
KSC1 231342Z 13014G19KT 24/20 A2988 RMK A01 T02410204  RH  080%=      5-min Rain = 0
KSC1 231343Z 14019KT 24/20 A2988 RMK A01 T02410204  RH  080%=      5-min Rain = 0
KSC1 231344Z 14019G25KT 24/20 A2987 RMK A01 T02410204  RH  079%=      5-min Rain = 0
KSC1 231345Z 14013KT 24/20 A2988 RMK A01 T02410204  RH  079%=      5-min Rain = 0
KSC1 231346Z 13012G22KT 24/20 A2988 RMK A01 T02410204  RH  080%=      5-min Rain = 0
KSC1 231347Z 13017G22KT 24/20 A2988 RMK A01 T02410204  RH  080%=      5-min Rain = 0
KSC1 231348Z 14014KT 24/20 A2988 RMK A01 T02410204  RH  080%=      5-min Rain = 0
KSC1 231349Z 14015KT 24/20 A2988 RMK A01 T02410204  RH  079%=      5-min Rain = 0
KSC1 231350Z 14013KT 24/20 A2988 RMK A01 T02420204  RH  080%=      5-min Rain = 0
KSC1 231351Z 14012KT 24/21 A2988 RMK A01 T02420205  RH  080%=      5-min Rain = 0
KSC1 231352Z 13013KT 24/21 A2988 RMK A01 T02410205  RH  080%=      5-min Rain = 0
KSC1 231353Z 14013G18KT 24/21 A2988 RMK A01 T02420205  RH  080%=      5-min Rain = 0
KSC1 231354Z 14014G19KT 24/21 A2988 RMK A01 T02420205  RH  080%=      5-min Rain = 0
KSC1 231355Z 13013G18KT 24/21 A2988 RMK A01 T02420205  RH  080%=      5-min Rain = 0
KSC1 231356Z 14014G19KT 24/21 A2988 RMK A01 T02420205  RH  080%=      5-min Rain = 0
KSC1 231357Z 13013KT 24/20 A2988 RMK A01 T02420204  RH  080%=      5-min Rain = 0
KSC1 231358Z 13014KT 24/20 A2988 RMK A01 T02410204  RH  080%=      5-min Rain = 0
KSC1 231359Z 14014KT 24/20 A2988 RMK A01 T02420204  RH  079%=      5-min Rain = 0
KSC1 231400Z 14011G17KT 24/21 A2988 RMK A01 T02420205  RH  080%=      5-min Rain = 0
KSC1 231401Z 14011KT 24/21 A2988 RMK A01 T02420205  RH  080%=      5-min Rain = 0
KSC1 231402Z 14015KT 24/21 A2988 RMK A01 T02420205  RH  080%=      5-min Rain = 0
KSC1 231403Z 14013KT 24/20 A2988 RMK A01 T02420204  RH  079%=      5-min Rain = 0
KSC1 231404Z 14013KT 24/20 A2988 RMK A01 T02420204  RH  079%=      5-min Rain = 0
KSC1 231405Z 14012KT 24/21 A2988 RMK A01 T02430205  RH  079%=      5-min Rain = 0
KSC1 231406Z 13010G16KT 24/21 A2988 RMK A01 T02420205  RH  079%=      5-min Rain = 0
KSC1 231407Z 14016KT 24/21 A2988 RMK A01 T02430205  RH  079%=      5-min Rain = 0
KSC1 231408Z 14013KT 24/20 A2988 RMK A01 T02430204  RH  079%=      5-min Rain = 0
KSC1 231409Z 15015G20KT 24/20 A2988 RMK A01 T02430204  RH  079%=      5-min Rain = 0
KSC1 231410Z 13014G21KT 24/20 A2988 RMK A01 T02430204  RH  078%=      5-min Rain = 0
KSC1 231411Z 14016KT 24/20 A2988 RMK A01 T02440203  RH  078%=      5-min Rain = 0
KSC1 231412Z 14012KT 24/20 A2988 RMK A01 T02440203  RH  078%=      5-min Rain = 0
KSC1 231413Z 14011G16KT 24/20 A2988 RMK A01 T02440203  RH  078%=      5-min Rain = 0
KSC1 231414Z 14013KT 24/20 A2988 RMK A01 T02440204  RH  078%=      5-min Rain = 0
KSC1 231415Z 14015G21KT 24/20 A2988 RMK A01 T02440203  RH  078%=      5-min Rain = 0
KSC1 231416Z 14013G18KT 24/20 A2989 RMK A01 T02440203  RH  078%=      5-min Rain = 0
KSC1 231417Z 15011KT 24/20 A2989 RMK A01 T02440203  RH  078%=      5-min Rain = 0
KSC1 231418Z 14012G18KT 24/20 A2989 RMK A01 T02440204  RH  078%=      5-min Rain = 0
KSC1 231419Z 14013KT 24/20 A2989 RMK A01 T02440203  RH  078%=      5-min Rain = 0
KSC1 231420Z 15013KT 24/20 A2989 RMK A01 T02440203  RH  078%=      5-min Rain = 0
KSC1 231421Z 14013KT 24/20 A2989 RMK A01 T02440202  RH  078%=      5-min Rain = 0
KSC1 231422Z 14014KT 24/20 A2989 RMK A01 T02440202  RH  078%=      5-min Rain = 0
KSC1 231423Z 14017G22KT 24/20 A2989 RMK A01 T02440202  RH  077%=      5-min Rain = 0
KSC1 231424Z 14012KT 25/20 A2989 RMK A01 T02450202  RH  077%=      5-min Rain = 0
KSC1 231425Z 14012KT 24/20 A2989 RMK A01 T02440202  RH  077%=      5-min Rain = 0
KSC1 231426Z 14015KT 24/20 A2989 RMK A01 T02440202  RH  077%=      5-min Rain = 0
KSC1 231427Z 14015G20KT 24/20 A2989 RMK A01 T02440201  RH  077%=      5-min Rain = 0
KSC1 231428Z 14012G18KT 24/20 A2989 RMK A01 T02440201  RH  077%=      5-min Rain = 0
KSC1 231429Z 14014KT 24/20 A2989 RMK A01 T02440201  RH  077%=      5-min Rain = 0
KSC1 231430Z 14013KT 24/20 A2989 RMK A01 T02440202  RH  077%=      5-min Rain = 0
KSC1 231431Z 14013G19KT 24/20 A2989 RMK A01 T02440202  RH  077%=      5-min Rain = 0
KSC1 231432Z 14014G21KT 24/20 A2989 RMK A01 T02440201  RH  077%=      5-min Rain = 0
KSC1 231433Z 15013G19KT 24/20 A2989 RMK A01 T02440201  RH  077%=      5-min Rain = 0
KSC1 231434Z 15017G22KT 24/20 A2989 RMK A01 T02440201  RH  077%=      5-min Rain = 0
KSC1 231435Z 14017G22KT 25/20 A2989 RMK A01 T02450201  RH  077%=      5-min Rain = 0
KSC1 231436Z 15017KT 25/20 A2989 RMK A01 T02450201  RH  076%=      5-min Rain = 0
KSC1 231437Z 15014G22KT 25/20 A2989 RMK A01 T02450200  RH  076%=      5-min Rain = 0
KSC1 231438Z 15012G23KT 25/20 A2989 RMK A01 T02450201  RH  077%=      5-min Rain = 0
KSC1 231439Z 14018G26KT 25/20 A2989 RMK A01 T02450200  RH  076%=      5-min Rain = 0
KSC1 231440Z 15019G25KT 25/20 A2989 RMK A01 T02450199  RH  076%=      5-min Rain = 0
KSC1 231441Z 14014KT 25/20 A2989 RMK A01 T02450200  RH  076%=      5-min Rain = 0
KSC1 231442Z 14014KT 25/20 A2989 RMK A01 T02450200  RH  076%=      5-min Rain = 0
KSC1 231443Z 14014G19KT 25/20 A2989 RMK A01 T02450200  RH  076%=      5-min Rain = 0
KSC1 231444Z 15015G21KT 25/20 A2989 RMK A01 T02450201  RH  076%=      5-min Rain = 0
KSC1 231445Z 15015KT 25/20 A2989 RMK A01 T02450200  RH  076%=      5-min Rain = 0
KSC1 231446Z 15015KT 25/20 A2989 RMK A01 T02450201  RH  076%=      5-min Rain = 0
KSC1 231447Z 14016KT 25/20 A2989 RMK A01 T02450200  RH  076%=      5-min Rain = 0
KSC1 231448Z 14013KT 25/20 A2989 RMK A01 T02450200  RH  076%=      5-min Rain = 0
KSC1 231449Z 15013G18KT 25/20 A2989 RMK A01 T02450200  RH  076%=      5-min Rain = 0
KSC1 231450Z 15018KT 25/20 A2989 RMK A01 T02450200  RH  076%=      5-min Rain = 0
KSC1 231451Z 15016G21KT 25/20 A2989 RMK A01 T02450199  RH  076%=      5-min Rain = 0
KSC1 231452Z 14013G18KT 25/20 A2989 RMK A01 T02450200  RH  076%=      5-min Rain = 0
KSC1 231453Z 14016G22KT 25/20 A2989 RMK A01 T02450200  RH  076%=      5-min Rain = 0
KSC1 231454Z 14017KT 25/20 A2989 RMK A01 T02450199  RH  076%=      5-min Rain = 0
KSC1 231455Z 14017KT 25/20 A2989 RMK A01 T02450199  RH  075%=      5-min Rain = 0
KSC1 231456Z 14016G21KT 25/20 A2989 RMK A01 T02450199  RH  075%=      5-min Rain = 0
KSC1 231457Z 14017G22KT 25/20 A2989 RMK A01 T02450199  RH  075%=      5-min Rain = 0
KSC1 231458Z 14018KT 25/20 A299 RMK A01 T02450199  RH  075%=      5-min Rain = 0
KSC1 231459Z 15015KT 25/20 A2989 RMK A01 T02450198  RH  075%=      5-min Rain = 0
KSC1 231500Z 15016KT 25/20 A2989 RMK A01 T02450198  RH  075%=      5-min Rain = 0
KSC1 231501Z 14014KT 25/20 A299 RMK A01 T02450199  RH  075%=      5-min Rain = 0
KSC1 231502Z 14018KT 25/20 A299 RMK A01 T02450198  RH  075%=      5-min Rain = 0
KSC1 231503Z 13018G23KT 25/20 A2989 RMK A01 T02450198  RH  075%=      5-min Rain = 0
KSC1 231504Z 14014KT 25/20 A299 RMK A01 T02450198  RH  075%=      5-min Rain = 0
KSC1 231505Z 14014KT 25/20 A299 RMK A01 T02450198  RH  075%=      5-min Rain = 0
KSC1 231506Z 14017G22KT 25/20 A299 RMK A01 T02450198  RH  075%=      5-min Rain = 0
KSC1 231507Z 15018KT 25/20 A299 RMK A01 T02450198  RH  075%=      5-min Rain = 0
KSC1 231508Z 15015KT 25/20 A299 RMK A01 T02460198  RH  075%=      5-min Rain = 0
KSC1 231509Z 14016G22KT 25/20 A299 RMK A01 T02450198  RH  075%=      5-min Rain = 0
KSC1 231510Z 15016KT 25/20 A299 RMK A01 T02460198  RH  075%=      5-min Rain = 0
KSC1 231511Z 14015G21KT 25/20 A299 RMK A01 T02460198  RH  075%=      5-min Rain = 0
KSC1 231512Z 15012G18KT 25/20 A299 RMK A01 T02460198  RH  075%=      5-min Rain = 0
KSC1 231513Z 15015KT 25/20 A299 RMK A01 T02460199  RH  075%=      5-min Rain = 0
KSC1 231514Z 14016G23KT 25/20 A299 RMK A01 T02460198  RH  075%=      5-min Rain = 0
KSC1 231515Z 16015G20KT 25/20 A299 RMK A01 T02460198  RH  075%=      5-min Rain = 0
KSC1 231516Z 15013KT 25/20 A299 RMK A01 T02460198  RH  075%=      5-min Rain = 0
KSC1 231517Z 15015KT 25/20 A299 RMK A01 T02460198  RH  075%=      5-min Rain = 0
KSC1 231518Z 14018KT 25/20 A299 RMK A01 T02460198  RH  075%=      5-min Rain = 0
KSC1 231519Z 14017KT 25/20 A299 RMK A01 T02460198  RH  075%=      5-min Rain = 0
KSC1 231520Z 14015KT 25/20 A299 RMK A01 T02460198  RH  074%=      5-min Rain = 0
KSC1 231521Z 14011KT 25/20 A299 RMK A01 T02460198  RH  075%=      5-min Rain = 0
KSC1 231522Z 14014G21KT 25/20 A299 RMK A01 T02460199  RH  075%=      5-min Rain = 0
KSC1 231523Z 14015KT 25/20 A299 RMK A01 T02460199  RH  075%=      5-min Rain = 0
KSC1 231524Z 15014KT 25/20 A299 RMK A01 T02460199  RH  075%=      5-min Rain = 0
KSC1 231525Z 15017KT 25/20 A299 RMK A01 T02460199  RH  075%=      5-min Rain = 0
KSC1 231526Z 14013G18KT 25/20 A299 RMK A01 T02460198  RH  075%=      5-min Rain = 0
KSC1 231527Z 14014KT 25/20 A299 RMK A01 T02460199  RH  075%=      5-min Rain = 0
KSC1 231528Z 14014G19KT 25/20 A299 RMK A01 T02460199  RH  075%=      5-min Rain = 0
KSC1 231529Z 15017KT 25/20 A299 RMK A01 T02460199  RH  075%=      5-min Rain = 0
KSC1 231530Z 14016G21KT 25/20 A299 RMK A01 T02460199  RH  075%=      5-min Rain = 0
KSC1 231531Z 14015G20KT 25/20 A299 RMK A01 T02460198  RH  075%=      5-min Rain = 0
KSC1 231532Z 14014KT 25/20 A299 RMK A01 T02460199  RH  075%=      5-min Rain = 0
KSC1 231533Z 14015KT 25/20 A299 RMK A01 T02460198  RH  075%=      5-min Rain = 0
KSC1 231534Z 14015KT 25/20 A299 RMK A01 T02460198  RH  075%=      5-min Rain = 0
KSC1 231535Z 15017G22KT 25/20 A299 RMK A01 T02460198  RH  075%=      5-min Rain = 0
KSC1 231536Z 15016KT 25/20 A299 RMK A01 T02460198  RH  075%=      5-min Rain = 0
KSC1 231537Z 15016G23KT 25/20 A299 RMK A01 T02460198  RH  075%=      5-min Rain = 0
KSC1 231538Z 15011KT 25/20 A299 RMK A01 T02460198  RH  075%=      5-min Rain = 0
KSC1 231539Z 14012G19KT 25/20 A299 RMK A01 T02460200  RH  076%=      5-min Rain = 0
KSC1 231540Z 14015G21KT 25/20 A299 RMK A01 T02460199  RH  075%=      5-min Rain = 0
KSC1 231541Z 14012KT 25/20 A299 RMK A01 T02460199  RH  075%=      5-min Rain = 0
KSC1 231542Z 14011KT 25/20 A299 RMK A01 T02460200  RH  076%=      5-min Rain = 0
KSC1 231543Z 15014KT 25/20 A299 RMK A01 T02460200  RH  076%=      5-min Rain = 0
KSC1 231544Z 15015KT 25/20 A299 RMK A01 T02460199  RH  075%=      5-min Rain = 0
KSC1 231545Z 15015G23KT 25/20 A299 RMK A01 T02460199  RH  075%=      5-min Rain = 0
KSC1 231546Z 14015KT 25/20 A299 RMK A01 T02460200  RH  076%=      5-min Rain = 0
KSC1 231547Z 14016G21KT 25/20 A299 RMK A01 T02460199  RH  075%=      5-min Rain = 0
KSC1 231548Z 14014G20KT 25/20 A299 RMK A01 T02460199  RH  075%=      5-min Rain = 0
KSC1 231549Z 15014G24KT 25/20 A299 RMK A01 T02460200  RH  075%=      5-min Rain = 0
KSC1 231550Z 15014G26KT 25/20 A2991 RMK A01 T02460199  RH  075%=      5-min Rain = 0
KSC1 231551Z 15018KT 25/20 A299 RMK A01 T02460200  RH  075%=      5-min Rain = 0
KSC1 231552Z 14014KT 25/20 A299 RMK A01 T02460200  RH  075%=      5-min Rain = 0
KSC1 231553Z 14014KT 25/20 A299 RMK A01 T02470200  RH  075%=      5-min Rain = 0
KSC1 231554Z 14013G18KT 25/20 A299 RMK A01 T02480201  RH  075%=      5-min Rain = 0
KSC1 231555Z 14016G22KT 25/20 A299 RMK A01 T02490202  RH  075%=      5-min Rain = 0
KSC1 231556Z 14018G25KT 25/20 A299 RMK A01 T02500201  RH  074%=      5-min Rain = 0
KSC1 231557Z 14018KT 25/20 A299 RMK A01 T02510201  RH  074%=      5-min Rain = 0
KSC1 231558Z 14017KT 25/20 A299 RMK A01 T02520200  RH  073%=      5-min Rain = 0
KSC1 231559Z 14015KT 25/20 A299 RMK A01 T02520201  RH  073%=      5-min Rain = 0
KSC1 231600Z 13011G16KT 25/20 A299 RMK A01 T02530202  RH  073%=      5-min Rain = 0
KSC1 231601Z 13015KT 25/20 A299 RMK A01 T02540202  RH  073%=      5-min Rain = 0
KSC1 231602Z 13014KT 25/20 A299 RMK A01 T02540202  RH  073%=      5-min Rain = 0
KSC1 231603Z 14015G22KT 26/20 A299 RMK A01 T02550201  RH  072%=      5-min Rain = 0
KSC1 231604Z 13019G26KT 26/20 A299 RMK A01 T02560201  RH  071%=      5-min Rain = 0
KSC1 231605Z 15017KT 26/20 A299 RMK A01 T02570198  RH  070%=      5-min Rain = 0
KSC1 231606Z 15019G24KT 26/20 A299 RMK A01 T02570198  RH  070%=      5-min Rain = 0
KSC1 231607Z 13016G21KT 26/20 A299 RMK A01 T02570199  RH  070%=      5-min Rain = 0
KSC1 231608Z 13016G21KT 26/20 A299 RMK A01 T02570199  RH  070%=      5-min Rain = 0
KSC1 231609Z 14015G21KT 26/20 A299 RMK A01 T02580200  RH  070%=      5-min Rain = 0
KSC1 231610Z 13016G22KT 26/20 A299 RMK A01 T02590200  RH  070%=      5-min Rain = 0
KSC1 231611Z 14018KT 26/20 A299 RMK A01 T02610199  RH  069%=      5-min Rain = 0
KSC1 231612Z 14015KT 26/20 A299 RMK A01 T02610199  RH  069%=      5-min Rain = 0
KSC1 231613Z 14014G19KT 26/20 A299 RMK A01 T02610200  RH  069%=      5-min Rain = 0
KSC1 231614Z 14012G17KT 26/20 A299 RMK A01 T02610200  RH  069%=      5-min Rain = 0
KSC1 231615Z 14013G18KT 26/20 A299 RMK A01 T02620201  RH  069%=      5-min Rain = 0
KSC1 231616Z 15011KT 26/20 A299 RMK A01 T02630203  RH  070%=      5-min Rain = 0
KSC1 231617Z 14013G19KT 26/20 A299 RMK A01 T02640203  RH  069%=      5-min Rain = 0
KSC1 231618Z 13017G23KT 26/20 A299 RMK A01 T02640201  RH  068%=      5-min Rain = 0
KSC1 231619Z 14019KT 26/20 A299 RMK A01 T02630199  RH  068%=      5-min Rain = 0
KSC1 231620Z 14017KT 26/20 A299 RMK A01 T02610199  RH  069%=      5-min Rain = 0
KSC1 231621Z 15018KT 26/20 A299 RMK A01 T02610199  RH  069%=      5-min Rain = 0
KSC1 231622Z 13015KT 26/20 A299 RMK A01 T02600198  RH  069%=      5-min Rain = 0
KSC1 231623Z 14019G24KT 26/20 A299 RMK A01 T02610199  RH  069%=      5-min Rain = 0
KSC1 231624Z 14017G22KT 26/20 A299 RMK A01 T02600198  RH  068%=      5-min Rain = 0
KSC1 231625Z 14018KT 26/20 A299 RMK A01 T02600198  RH  069%=      5-min Rain = 0
KSC1 231626Z 15014G19KT 26/20 A299 RMK A01 T02590198  RH  069%=      5-min Rain = 0
KSC1 231627Z 15012G18KT 26/20 A299 RMK A01 T02590198  RH  069%=      5-min Rain = 0
KSC1 231628Z 15015G20KT 26/20 A299 RMK A01 T02590199  RH  070%=      5-min Rain = 0
KSC1 231629Z 14012G17KT 26/20 A299 RMK A01 T02590198  RH  069%=      5-min Rain = 0
KSC1 231630Z 13016G21KT 26/20 A299 RMK A01 T02600199  RH  069%=      5-min Rain = 0
KSC1 231631Z 14011KT 26/20 A299 RMK A01 T02610200  RH  069%=      5-min Rain = 0
KSC1 231632Z 14011KT 26/20 A299 RMK A01 T02620200  RH  069%=      5-min Rain = 0
KSC1 231633Z 14014G19KT 26/20 A299 RMK A01 T02620199  RH  068%=      5-min Rain = 0
KSC1 231634Z 15014G20KT 26/20 A299 RMK A01 T02630199  RH  068%=      5-min Rain = 0
KSC1 231635Z 15012G17KT 27/20 A299 RMK A01 T02660201  RH  068%=      5-min Rain = 0
KSC1 231636Z 14012G17KT 27/20 A299 RMK A01 T02690201  RH  066%=      5-min Rain = 0
KSC1 231637Z 15015G23KT 27/20 A2991 RMK A01 T02700201  RH  066%=      5-min Rain = 0
KSC1 231638Z 15019G27KT 27/20 A299 RMK A01 T02690196  RH  064%=      5-min Rain = 0
KSC1 231639Z 16019G24KT 27/19 A299 RMK A01 T02670193  RH  064%=      5-min Rain = 0
KSC1 231640Z 15019G25KT 27/19 A299 RMK A01 T02660192  RH  064%=      5-min Rain = 0
KSC1 231641Z 15019G24KT 27/19 A2991 RMK A01 T02650192  RH  064%=      5-min Rain = 0
KSC1 231642Z 15018KT 26/19 A2991 RMK A01 T02640191  RH  064%=      5-min Rain = 0
KSC1 231643Z 14016G22KT 26/19 A299 RMK A01 T02640192  RH  064%=      5-min Rain = 0
KSC1 231644Z 15010G16KT 26/19 A299 RMK A01 T02640193  RH  065%=      5-min Rain = 0
KSC1 231645Z 15013G19KT 27/19 A299 RMK A01 T02650194  RH  065%=      5-min Rain = 0
KSC1 231646Z 15016KT 27/19 A299 RMK A01 T02660194  RH  065%=      5-min Rain = 0
KSC1 231647Z 15016G21KT 27/19 A299 RMK A01 T02670194  RH  064%=      5-min Rain = 0
KSC1 231648Z 16020KT 27/19 A299 RMK A01 T02680194  RH  064%=      5-min Rain = 0
KSC1 231649Z 15020G25KT 27/19 A299 RMK A01 T02690193  RH  063%=      5-min Rain = 0
KSC1 231650Z 16021G26KT 27/19 A299 RMK A01 T02690194  RH  063%=      5-min Rain = 0
KSC1 231651Z 15019KT 27/19 A299 RMK A01 T02690193  RH  063%=      5-min Rain = 0
KSC1 231652Z 16017G25KT 27/19 A299 RMK A01 T02690194  RH  064%=      5-min Rain = 0
KSC1 231653Z 15019G24KT 27/19 A299 RMK A01 T02690193  RH  063%=      5-min Rain = 0
KSC1 231654Z 15018KT 27/19 A299 RMK A01 T02690193  RH  063%=      5-min Rain = 0
KSC1 231655Z 14014G19KT 27/19 A2991 RMK A01 T02690194  RH  064%=      5-min Rain = 0
KSC1 231656Z 15017KT 27/19 A299 RMK A01 T02690194  RH  063%=      5-min Rain = 0
KSC1 231657Z 15018G25KT 27/19 A2991 RMK A01 T02680193  RH  063%=      5-min Rain = 0
KSC1 231658Z 16017G25KT 27/19 A299 RMK A01 T02670192  RH  063%=      5-min Rain = 0
KSC1 231659Z 15014G19KT 27/19 A299 RMK A01 T02670194  RH  064%=      5-min Rain = 0
KSC1 231700Z 15015G21KT 27/19 A299 RMK A01 T02670194  RH  064%=      5-min Rain = 0
KSC1 231701Z 15016G21KT 27/19 A299 RMK A01 T02670194  RH  064%=      5-min Rain = 0
KSC1 231702Z 14021G26KT 27/19 A2991 RMK A01 T02670193  RH  064%=      5-min Rain = 0
KSC1 231703Z 14019G25KT 27/19 A299 RMK A01 T02660191  RH  063%=      5-min Rain = 0
KSC1 231704Z 14016G22KT 27/19 A299 RMK A01 T02660193  RH  064%=      5-min Rain = 0
KSC1 231705Z 14015KT 27/19 A299 RMK A01 T02670194  RH  064%=      5-min Rain = 0
KSC1 231706Z 14019G25KT 27/19 A299 RMK A01 T02690193  RH  063%=      5-min Rain = 0
KSC1 231707Z 14019G24KT 27/19 A299 RMK A01 T02690193  RH  063%=      5-min Rain = 0
KSC1 231708Z 15020G25KT 27/19 A299 RMK A01 T02690193  RH  063%=      5-min Rain = 0
KSC1 231709Z 14018G24KT 27/19 A299 RMK A01 T02700193  RH  062%=      5-min Rain = 0
KSC1 231710Z 15015KT 27/19 A2991 RMK A01 T02700194  RH  063%=      5-min Rain = 0
KSC1 231711Z 15021G26KT 27/19 A2991 RMK A01 T02710194  RH  063%=      5-min Rain = 0
KSC1 231712Z 15020G25KT 27/19 A2991 RMK A01 T02720192  RH  062%=      5-min Rain = 0
KSC1 231713Z 15021KT 27/19 A2991 RMK A01 T02720193  RH  062%=      5-min Rain = 0
KSC1 231714Z 15018KT 27/19 A2991 RMK A01 T02730193  RH  062%=      5-min Rain = 0
KSC1 231715Z 15021G28KT 27/19 A299 RMK A01 T02730192  RH  061%=      5-min Rain = 0
KSC1 231716Z 15018G24KT 27/19 A2991 RMK A01 T02730193  RH  061%=      5-min Rain = 0
KSC1 231717Z 16013G18KT 27/20 A2991 RMK A01 T02730195  RH  063%=      5-min Rain = 0
KSC1 231718Z 15018G23KT 27/20 A2991 RMK A01 T02740195  RH  062%=      5-min Rain = 0
KSC1 231719Z 15018G23KT 28/20 A2991 RMK A01 T02750195  RH  062%=      5-min Rain = 0
KSC1 231720Z 15016KT 28/20 A2991 RMK A01 T02770197  RH  062%=      5-min Rain = 0
KSC1 231721Z 15016G22KT 28/20 A2991 RMK A01 T02790196  RH  061%=      5-min Rain = 0
KSC1 231722Z 16018G26KT 28/20 A299 RMK A01 T02800197  RH  061%=      5-min Rain = 0
KSC1 231723Z 15018KT 28/20 A2991 RMK A01 T02790195  RH  060%=      5-min Rain = 0
KSC1 231724Z 16022KT 28/20 A299 RMK A01 T02790196  RH  061%=      5-min Rain = 0
KSC1 231725Z 15021G26KT 28/19 A299 RMK A01 T02780193  RH  060%=      5-min Rain = 0
KSC1 231726Z 15019G27KT 28/19 A299 RMK A01 T02780194  RH  060%=      5-min Rain = 0
KSC1 231727Z 15019G27KT 28/19 A2991 RMK A01 T02780193  RH  060%=      5-min Rain = 0
KSC1 231728Z 15020G26KT 28/19 A2991 RMK A01 T02790193  RH  060%=      5-min Rain = 0
KSC1 231729Z 15023G30KT 28/19 A2991 RMK A01 T02810193  RH  059%=      5-min Rain = 0
KSC1 231730Z 15023G31KT 28/19 A299 RMK A01 T02800192  RH  059%=      5-min Rain = 0
KSC1 231731Z 14022G30KT 28/19 A2991 RMK A01 T02790192  RH  059%=      5-min Rain = 0
KSC1 231732Z 14019KT 28/19 A2991 RMK A01 T02780192  RH  060%=      5-min Rain = 0
KSC1 231733Z 14016KT 28/19 A2991 RMK A01 T02760192  RH  060%=      5-min Rain = 0
KSC1 231734Z 16014G19KT 28/19 A2991 RMK A01 T02750194  RH  061%=      5-min Rain = 0
KSC1 231735Z 14012G17KT 28/20 A2991 RMK A01 T02750196  RH  062%=      5-min Rain = 0
KSC1 231736Z 14017G23KT 28/20 A2991 RMK A01 T02750196  RH  062%=      5-min Rain = 0
KSC1 231737Z 16018KT 28/19 A2991 RMK A01 T02750194  RH  061%=      5-min Rain = 0
KSC1 231738Z 14014G20KT 28/20 A299 RMK A01 T02750195  RH  061%=      5-min Rain = 0
KSC1 231739Z 15014KT 28/20 A299 RMK A01 T02760196  RH  062%=      5-min Rain = 0
KSC1 231740Z 16016G27KT 28/20 A299 RMK A01 T02770197  RH  062%=      5-min Rain = 0
KSC1 231741Z 16017G23KT 28/19 A299 RMK A01 T02780193  RH  060%=      5-min Rain = 0
KSC1 231742Z 15018G24KT 28/20 A299 RMK A01 T02780195  RH  060%=      5-min Rain = 0
KSC1 231743Z 16018G25KT 28/19 A299 RMK A01 T02780193  RH  060%=      5-min Rain = 0
KSC1 231744Z 16014G19KT 28/19 A299 RMK A01 T02790193  RH  060%=      5-min Rain = 0
KSC1 231745Z 16018G23KT 28/19 A299 RMK A01 T02780193  RH  060%=      5-min Rain = 0
KSC1 231746Z 16019G25KT 28/19 A299 RMK A01 T02780194  RH  060%=      5-min Rain = 0
KSC1 231747Z 15018G25KT 28/19 A299 RMK A01 T02790193  RH  060%=      5-min Rain = 0
KSC1 231748Z 15019G26KT 28/19 A299 RMK A01 T02790193  RH  059%=      5-min Rain = 0
KSC1 231749Z 15020G27KT 28/19 A299 RMK A01 T02800193  RH  059%=      5-min Rain = 0
KSC1 231750Z 15020G29KT 28/19 A299 RMK A01 T02800193  RH  059%=      5-min Rain = 0
KSC1 231751Z 16022G27KT 28/19 A299 RMK A01 T02800193  RH  059%=      5-min Rain = 0
KSC1 231752Z 15015G22KT 28/19 A299 RMK A01 T02790193  RH  059%=      5-min Rain = 0
KSC1 231753Z 16019KT 28/19 A299 RMK A01 T02790194  RH  060%=      5-min Rain = 0
KSC1 231754Z 16020G26KT 28/19 A299 RMK A01 T02800193  RH  059%=      5-min Rain = 0
KSC1 231755Z 15020G25KT 28/19 A299 RMK A01 T02800193  RH  059%=      5-min Rain = 0
KSC1 231756Z 14018G25KT 28/19 A299 RMK A01 T02800194  RH  060%=      5-min Rain = 0
KSC1 231757Z 14019G24KT 28/19 A299 RMK A01 T02810193  RH  059%=      5-min Rain = 0
KSC1 231758Z 15019KT 28/19 A299 RMK A01 T02800193  RH  059%=      5-min Rain = 0
KSC1 231759Z 16019G25KT 28/19 A299 RMK A01 T02800193  RH  059%=      5-min Rain = 0
KSC1 231800Z 15019G24KT 28/20 A299 RMK A01 T02830195  RH  059%=      5-min Rain = 0
KSC1 231801Z 16020G26KT 29/19 A299 RMK A01 T02850194  RH  058%=      5-min Rain = 0
KSC1 231802Z 15015G20KT 29/20 A299 RMK A01 T02860195  RH  058%=      5-min Rain = 0
KSC1 231803Z 15018G23KT 29/20 A299 RMK A01 T02890198  RH  058%=      5-min Rain = 0
KSC1 231804Z 15019G25KT 29/20 A2989 RMK A01 T02900197  RH  057%=      5-min Rain = 0
KSC1 231805Z 15017G22KT 29/20 A299 RMK A01 T02910197  RH  057%=      5-min Rain = 0
KSC1 231806Z 16020G25KT 29/20 A299 RMK A01 T02900196  RH  057%=      5-min Rain = 0
KSC1 231807Z 16015G20KT 29/20 A2989 RMK A01 T02880195  RH  057%=      5-min Rain = 0
KSC1 231808Z 16017G22KT 29/20 A2989 RMK A01 T02880197  RH  058%=      5-min Rain = 0
KSC1 231809Z 15020G25KT 29/19 A299 RMK A01 T02870194  RH  057%=      5-min Rain = 0
KSC1 231810Z 15017G22KT 29/20 A2989 RMK A01 T02860195  RH  058%=      5-min Rain = 0
KSC1 231811Z 15016KT 29/20 A2989 RMK A01 T02850196  RH  058%=      5-min Rain = 0
KSC1 231812Z 15017G22KT 29/20 A2989 RMK A01 T02870197  RH  058%=      5-min Rain = 0
KSC1 231813Z 16018KT 29/20 A2989 RMK A01 T02880197  RH  058%=      5-min Rain = 0
KSC1 231814Z 14015KT 29/20 A2989 RMK A01 T02890198  RH  058%=      5-min Rain = 0
KSC1 231815Z 14016G26KT 29/20 A2989 RMK A01 T02900199  RH  058%=      5-min Rain = 0
KSC1 231816Z 14021G26KT 29/20 A2989 RMK A01 T02900197  RH  057%=      5-min Rain = 0
KSC1 231817Z 14015G21KT 29/20 A2989 RMK A01 T02890197  RH  058%=      5-min Rain = 0
KSC1 231818Z 13016G22KT 29/20 A2989 RMK A01 T02890198  RH  058%=      5-min Rain = 0
KSC1 231819Z 14017KT 29/20 A2989 RMK A01 T02900198  RH  057%=      5-min Rain = 0
KSC1 231820Z 15016KT 29/20 A2989 RMK A01 T02910198  RH  057%=      5-min Rain = 0
KSC1 231821Z 16017G24KT 29/20 A2989 RMK A01 T02900198  RH  057%=      5-min Rain = 0
KSC1 231822Z 15015G21KT 29/20 A2989 RMK A01 T02890196  RH  057%=      5-min Rain = 0
KSC1 231823Z 15014KT 29/20 A2989 RMK A01 T02890199  RH  058%=      5-min Rain = 0
KSC1 231824Z 14018G24KT 29/20 A2989 RMK A01 T02910198  RH  057%=      5-min Rain = 0
KSC1 231825Z 14017G24KT 29/20 A2989 RMK A01 T02910197  RH  057%=      5-min Rain = 0
KSC1 231826Z 14015KT 29/20 A2989 RMK A01 T02900198  RH  057%=      5-min Rain = 0
KSC1 231827Z 14016G21KT 29/20 A2989 RMK A01 T02900197  RH  058%=      5-min Rain = 0
KSC1 231828Z 14017G25KT 29/20 A2989 RMK A01 T02890199  RH  058%=      5-min Rain = 0
KSC1 231829Z 14018G23KT 29/20 A2989 RMK A01 T02890197  RH  058%=      5-min Rain = 0
KSC1 231830Z 14021KT 29/20 A2989 RMK A01 T02890197  RH  057%=      5-min Rain = 0
KSC1 231831Z 15018KT 29/20 A2989 RMK A01 T02890197  RH  058%=      5-min Rain = 0
KSC1 231832Z 16021G27KT 29/20 A2989 RMK A01 T02900198  RH  058%=      5-min Rain = 0
KSC1 231833Z 15019G25KT 29/20 A2989 RMK A01 T02910198  RH  057%=      5-min Rain = 0
KSC1 231834Z 15018G24KT 29/20 A2989 RMK A01 T02910199  RH  057%=      5-min Rain = 0
KSC1 231835Z 15019G27KT 29/20 A2989 RMK A01 T02910199  RH  057%=      5-min Rain = 0
KSC1 231836Z 15020KT 29/20 A2989 RMK A01 T02920196  RH  056%=      5-min Rain = 0
KSC1 231837Z 14017KT 29/20 A2989 RMK A01 T02920198  RH  057%=      5-min Rain = 0
KSC1 231838Z 16019G24KT 29/20 A2989 RMK A01 T02930197  RH  056%=      5-min Rain = 0
KSC1 231839Z 15018KT 29/20 A2989 RMK A01 T02930198  RH  057%=      5-min Rain = 0
KSC1 231840Z 15017G24KT 29/20 A2989 RMK A01 T02930199  RH  057%=      5-min Rain = 0
KSC1 231841Z 15020G26KT 29/20 A2989 RMK A01 T02920198  RH  057%=      5-min Rain = 0
KSC1 231842Z 15019KT 29/20 A2989 RMK A01 T02890196  RH  057%=      5-min Rain = 0
KSC1 231843Z 15018KT 29/20 A2989 RMK A01 T02880196  RH  058%=      5-min Rain = 0
KSC1 231844Z 15017KT 29/20 A2989 RMK A01 T02870197  RH  058%=      5-min Rain = 0
KSC1 231845Z 15014G23KT 29/20 A2989 RMK A01 T02870198  RH  059%=      5-min Rain = 0
KSC1 231846Z 16018G23KT 29/20 A2989 RMK A01 T02880200  RH  059%=      5-min Rain = 0
KSC1 231847Z 16016KT 29/20 A2989 RMK A01 T02900200  RH  058%=      5-min Rain = 0
KSC1 231848Z 14015G20KT 29/20 A2989 RMK A01 T02910199  RH  058%=      5-min Rain = 0
KSC1 231849Z 15018G26KT 29/20 A2989 RMK A01 T02920200  RH  057%=      5-min Rain = 0
KSC1 231850Z 14019KT 29/20 A2989 RMK A01 T02910197  RH  057%=      5-min Rain = 0
KSC1 231851Z 14018G24KT 29/20 A2989 RMK A01 T02900196  RH  057%=      5-min Rain = 0
KSC1 231852Z 15017G23KT 29/20 A2989 RMK A01 T02890197  RH  057%=      5-min Rain = 0
KSC1 231853Z 15018G25KT 29/20 A2989 RMK A01 T02890196  RH  057%=      5-min Rain = 0
KSC1 231854Z 15019KT 29/20 A2989 RMK A01 T02880195  RH  057%=      5-min Rain = 0
KSC1 231855Z 15018G23KT 29/20 A2989 RMK A01 T02880196  RH  058%=      5-min Rain = 0
KSC1 231856Z 15015G21KT 29/20 A2989 RMK A01 T02890198  RH  058%=      5-min Rain = 0
KSC1 231857Z 15015G20KT 29/20 A2989 RMK A01 T02900199  RH  058%=      5-min Rain = 0
KSC1 231858Z 15013G18KT 29/20 A2989 RMK A01 T02900199  RH  058%=      5-min Rain = 0
KSC1 231859Z 15015KT 29/20 A2989 RMK A01 T02900199  RH  058%=      5-min Rain = 0
KSC1 231900Z 14016G24KT 29/20 A2989 RMK A01 T02900198  RH  058%=      5-min Rain = 0
KSC1 231901Z 14020G26KT 29/20 A2989 RMK A01 T02900196  RH  057%=      5-min Rain = 0
KSC1 231902Z 15021G28KT 29/19 A2989 RMK A01 T02880194  RH  057%=      5-min Rain = 0
KSC1 231903Z 15020KT 29/19 A2989 RMK A01 T02870194  RH  057%=      5-min Rain = 0
KSC1 231904Z 15019G24KT 29/20 A2989 RMK A01 T02870195  RH  057%=      5-min Rain = 0
KSC1 231905Z 15014KT 29/20 A2989 RMK A01 T02870196  RH  058%=      5-min Rain = 0
KSC1 231906Z 15015G23KT 29/20 A2989 RMK A01 T02880198  RH  058%=      5-min Rain = 0
KSC1 231907Z 15017G22KT 29/20 A2989 RMK A01 T02900198  RH  057%=      5-min Rain = 0
KSC1 231908Z 15016G23KT 29/20 A2989 RMK A01 T02900197  RH  057%=      5-min Rain = 0
KSC1 231909Z 15017KT 29/20 A2989 RMK A01 T02890196  RH  057%=      5-min Rain = 0
KSC1 231910Z 15015G21KT 29/20 A2989 RMK A01 T02890197  RH  058%=      5-min Rain = 0
KSC1 231911Z 15019KT 29/20 A2989 RMK A01 T02910197  RH  057%=      5-min Rain = 0
KSC1 231912Z 15018KT 29/20 A2988 RMK A01 T02910196  RH  056%=      5-min Rain = 0
KSC1 231913Z 15017G23KT 29/20 A2989 RMK A01 T02890195  RH  057%=      5-min Rain = 0
KSC1 231914Z 15018G25KT 29/19 A2989 RMK A01 T02880194  RH  057%=      5-min Rain = 0
KSC1 231915Z 15017G23KT 29/19 A2989 RMK A01 T02870194  RH  057%=      5-min Rain = 0
KSC1 231916Z 15017KT 29/19 A2989 RMK A01 T02860194  RH  057%=      5-min Rain = 0
KSC1 231917Z 15016G21KT 29/20 A2989 RMK A01 T02860195  RH  058%=      5-min Rain = 0
KSC1 231918Z 16017G23KT 29/19 A2988 RMK A01 T02860194  RH  058%=      5-min Rain = 0
KSC1 231919Z 15014KT 29/20 A2989 RMK A01 T02850196  RH  058%=      5-min Rain = 0
KSC1 231920Z 14017G24KT 29/20 A2989 RMK A01 T02850195  RH  058%=      5-min Rain = 0
KSC1 231921Z 14020KT 29/19 A2989 RMK A01 T02860194  RH  057%=      5-min Rain = 0
KSC1 231922Z 14015KT 29/19 A2989 RMK A01 T02860194  RH  058%=      5-min Rain = 0
KSC1 231923Z 14014G21KT 29/20 A2989 RMK A01 T02860196  RH  058%=      5-min Rain = 0
KSC1 231924Z 13017KT 29/20 A2988 RMK A01 T02870195  RH  058%=      5-min Rain = 0
KSC1 231925Z 15019KT 29/19 A2988 RMK A01 T02870193  RH  057%=      5-min Rain = 0
KSC1 231926Z 15020G25KT 29/19 A2988 RMK A01 T02870194  RH  057%=      5-min Rain = 0
KSC1 231927Z 14019KT 29/19 A2988 RMK A01 T02880194  RH  057%=      5-min Rain = 0
KSC1 231928Z 14015G20KT 29/20 A2988 RMK A01 T02910197  RH  057%=      5-min Rain = 0
KSC1 231929Z 14014KT 29/20 A2988 RMK A01 T02930198  RH  057%=      5-min Rain = 0
KSC1 231930Z 14015G21KT 30/20 A2988 RMK A01 T02950200  RH  057%=      5-min Rain = 0
KSC1 231931Z 14018G25KT 30/20 A2988 RMK A01 T02950196  RH  055%=      5-min Rain = 0
KSC1 231932Z 14017KT 29/20 A2988 RMK A01 T02930195  RH  055%=      5-min Rain = 0
KSC1 231933Z 14016G30KT 29/20 A2988 RMK A01 T02910196  RH  057%=      5-min Rain = 0
KSC1 231934Z 15020G27KT 29/20 A2988 RMK A01 T02910195  RH  056%=      5-min Rain = 0
KSC1 231935Z 15020G26KT 29/20 A2988 RMK A01 T02920195  RH  056%=      5-min Rain = 0
KSC1 231936Z 15019G25KT 29/20 A2988 RMK A01 T02920195  RH  056%=      5-min Rain = 0
KSC1 231937Z 15020G25KT 29/20 A2988 RMK A01 T02910195  RH  056%=      5-min Rain = 0
KSC1 231938Z 16019G24KT 29/20 A2988 RMK A01 T02920196  RH  056%=      5-min Rain = 0
KSC1 231939Z 15018G23KT 29/20 A2988 RMK A01 T02940198  RH  056%=      5-min Rain = 0
KSC1 231940Z 15016G21KT 30/20 A2988 RMK A01 T02950196  RH  055%=      5-min Rain = 0
KSC1 231941Z 15014G20KT 30/20 A2988 RMK A01 T02950198  RH  056%=      5-min Rain = 0
KSC1 231942Z 14013G20KT 29/20 A2988 RMK A01 T02940198  RH  056%=      5-min Rain = 0
KSC1 231943Z 15021KT 29/20 A2988 RMK A01 T02930196  RH  056%=      5-min Rain = 0
KSC1 231944Z 14014G20KT 29/20 A2988 RMK A01 T02920196  RH  056%=      5-min Rain = 0
KSC1 231945Z 14020KT 29/20 A2988 RMK A01 T02930198  RH  056%=      5-min Rain = 0
KSC1 231946Z 15016G22KT 29/20 A2988 RMK A01 T02940198  RH  056%=      5-min Rain = 0
KSC1 231947Z 14016KT 29/20 A2988 RMK A01 T02930198  RH  056%=      5-min Rain = 0
KSC1 231948Z 15014G19KT 29/20 A2988 RMK A01 T02930200  RH  057%=      5-min Rain = 0
KSC1 231949Z 15016G24KT 30/20 A2988 RMK A01 T02950200  RH  057%=      5-min Rain = 0
KSC1 231950Z 15015KT 29/20 A2988 RMK A01 T02940198  RH  056%=      5-min Rain = 0
KSC1 231951Z 15015G20KT 29/20 A2988 RMK A01 T02930199  RH  057%=      5-min Rain = 0
KSC1 231952Z 16019G25KT 29/20 A2988 RMK A01 T02940197  RH  056%=      5-min Rain = 0
KSC1 231953Z 15018KT 29/20 A2988 RMK A01 T02940195  RH  055%=      5-min Rain = 0
KSC1 231954Z 16015G21KT 29/20 A2988 RMK A01 T02940196  RH  056%=      5-min Rain = 0
KSC1 231955Z 15016KT 30/20 A2988 RMK A01 T02960198  RH  056%=      5-min Rain = 0
KSC1 231956Z 16018G24KT 30/20 A2988 RMK A01 T02970197  RH  055%=      5-min Rain = 0
KSC1 231957Z 16019KT 30/20 A2988 RMK A01 T02960196  RH  055%=      5-min Rain = 0
KSC1 231958Z 15015G21KT 30/20 A2988 RMK A01 T02950196  RH  055%=      5-min Rain = 0
KSC1 231959Z 15015G21KT 30/20 A2988 RMK A01 T02950197  RH  056%=      5-min Rain = 0
KSC1 232000Z 16015G20KT 30/20 A2988 RMK A01 T02960199  RH  056%=      5-min Rain = 0
KSC1 232001Z 15016KT 30/20 A2988 RMK A01 T02980199  RH  055%=      5-min Rain = 0
KSC1 232002Z 16016KT 30/20 A2988 RMK A01 T03000198  RH  055%=      5-min Rain = 0
KSC1 232003Z 15016KT 30/20 A2988 RMK A01 T02990195  RH  054%=      5-min Rain = 0
KSC1 232004Z 16015G20KT 30/20 A2988 RMK A01 T02970197  RH  055%=      5-min Rain = 0
KSC1 232005Z 14017KT 30/20 A2988 RMK A01 T02960196  RH  055%=      5-min Rain = 0
KSC1 232006Z 14015G22KT 30/20 A2988 RMK A01 T02950196  RH  055%=      5-min Rain = 0
KSC1 232007Z 14015G22KT 29/20 A2988 RMK A01 T02930195  RH  056%=      5-min Rain = 0
KSC1 232008Z 14013G18KT 29/20 A2988 RMK A01 T02920196  RH  056%=      5-min Rain = 0
KSC1 232009Z 13017KT 29/20 A2988 RMK A01 T02910195  RH  056%=      5-min Rain = 0
KSC1 232010Z 14013G18KT 29/19 A2988 RMK A01 T02900194  RH  056%=      5-min Rain = 0
KSC1 232011Z 14015G20KT 29/20 A2988 RMK A01 T02890196  RH  057%=      5-min Rain = 0
KSC1 232012Z 15015G21KT 29/19 A2988 RMK A01 T02890194  RH  057%=      5-min Rain = 0
KSC1 232013Z 16019KT 29/19 A2988 RMK A01 T02890194  RH  056%=      5-min Rain = 0
KSC1 232014Z 15019G25KT 29/19 A2988 RMK A01 T02890193  RH  056%=      5-min Rain = 0
KSC1 232015Z 15019KT 29/19 A2988 RMK A01 T02890192  RH  056%=      5-min Rain = 0
KSC1 232016Z 15017KT 29/19 A2988 RMK A01 T02890194  RH  057%=      5-min Rain = 0
KSC1 232017Z 16017KT 29/19 A2988 RMK A01 T02910194  RH  056%=      5-min Rain = 0
KSC1 232018Z 15017KT 29/20 A2988 RMK A01 T02930196  RH  056%=      5-min Rain = 0
KSC1 232019Z 15017G22KT 30/20 A2988 RMK A01 T02960196  RH  055%=      5-min Rain = 0
KSC1 232020Z 15017KT 30/20 A2988 RMK A01 T02960195  RH  054%=      5-min Rain = 0
KSC1 232021Z 14017G22KT 30/19 A2988 RMK A01 T02950194  RH  055%=      5-min Rain = 0
KSC1 232022Z 14018G25KT 30/20 A2988 RMK A01 T02950196  RH  055%=      5-min Rain = 0
KSC1 232023Z 14019G25KT 30/19 A2988 RMK A01 T02950194  RH  055%=      5-min Rain = 0
KSC1 232024Z 14020KT 30/19 A2988 RMK A01 T02950194  RH  054%=      5-min Rain = 0
KSC1 232025Z 15016G22KT 29/19 A2988 RMK A01 T02930193  RH  055%=      5-min Rain = 0
KSC1 232026Z 15012G17KT 29/19 A2988 RMK A01 T02910194  RH  056%=      5-min Rain = 0
KSC1 232027Z 15015KT 29/20 A2988 RMK A01 T02900196  RH  057%=      5-min Rain = 0
KSC1 232028Z 15017G22KT 29/19 A2988 RMK A01 T02900194  RH  056%=      5-min Rain = 0
KSC1 232029Z 15016KT 29/20 A2988 RMK A01 T02920195  RH  056%=      5-min Rain = 0
KSC1 232030Z 15016G22KT 29/20 A2987 RMK A01 T02930196  RH  056%=      5-min Rain = 0
KSC1 232031Z 14017KT 29/20 A2987 RMK A01 T02920196  RH  056%=      5-min Rain = 0
KSC1 232032Z 15014KT 29/20 A2987 RMK A01 T02910196  RH  056%=      5-min Rain = 0
KSC1 232033Z 15010KT 29/20 A2987 RMK A01 T02930201  RH  058%=      5-min Rain = 0
KSC1 232034Z 15013G18KT 30/21 A2987 RMK A01 T02980205  RH  057%=      5-min Rain = 0
KSC1 232035Z 15016KT 30/20 A2987 RMK A01 T03020199  RH  054%=      5-min Rain = 0
KSC1 232036Z 15017KT 30/20 A2987 RMK A01 T03030196  RH  053%=      5-min Rain = 0
KSC1 232037Z 16016G22KT 30/20 A2987 RMK A01 T03020196  RH  053%=      5-min Rain = 0
KSC1 232038Z 16015G22KT 30/20 A2987 RMK A01 T03010196  RH  054%=      5-min Rain = 0
KSC1 232039Z 15014KT 30/20 A2987 RMK A01 T03000200  RH  055%=      5-min Rain = 0
KSC1 232040Z 14016KT 30/20 A2987 RMK A01 T03000197  RH  054%=      5-min Rain = 0
KSC1 232041Z 13018G24KT 30/20 A2987 RMK A01 T03000198  RH  054%=      5-min Rain = 0
KSC1 232042Z 14016G21KT 30/20 A2987 RMK A01 T02990197  RH  054%=      5-min Rain = 0
KSC1 232043Z 14014G19KT 30/20 A2987 RMK A01 T02990198  RH  054%=      5-min Rain = 0
KSC1 232044Z 14013G19KT 30/20 A2987 RMK A01 T03000198  RH  054%=      5-min Rain = 0
KSC1 232045Z 15013G20KT 30/20 A2987 RMK A01 T03020199  RH  054%=      5-min Rain = 0
KSC1 232046Z 15015KT 30/20 A2987 RMK A01 T03030199  RH  054%=      5-min Rain = 0
KSC1 232047Z 15016KT 30/20 A2987 RMK A01 T03040198  RH  053%=      5-min Rain = 0
KSC1 232048Z 15018KT 30/20 A2987 RMK A01 T03020195  RH  053%=      5-min Rain = 0
KSC1 232049Z 14016G22KT 30/19 A2987 RMK A01 T02990194  RH  054%=      5-min Rain = 0
KSC1 232050Z 14016G22KT 30/20 A2987 RMK A01 T02970195  RH  054%=      5-min Rain = 0
KSC1 232051Z 14018KT 30/19 A2987 RMK A01 T02970194  RH  054%=      5-min Rain = 0
KSC1 232052Z 15019KT 30/19 A2987 RMK A01 T02980193  RH  053%=      5-min Rain = 0
KSC1 232053Z 15016KT 30/20 A2987 RMK A01 T02990196  RH  054%=      5-min Rain = 0
KSC1 232054Z 16015KT 30/20 A2987 RMK A01 T03000198  RH  054%=      5-min Rain = 0
KSC1 232055Z 16016KT 30/20 A2987 RMK A01 T03010199  RH  054%=      5-min Rain = 0
KSC1 232056Z 16015G22KT 30/20 A2987 RMK A01 T03010198  RH  054%=      5-min Rain = 0
KSC1 232057Z 15017G22KT 30/20 A2987 RMK A01 T03010198  RH  054%=      5-min Rain = 0
KSC1 232058Z 16016G21KT 30/20 A2987 RMK A01 T03010196  RH  053%=      5-min Rain = 0
KSC1 232059Z 16019G24KT 30/20 A2987 RMK A01 T03000196  RH  054%=      5-min Rain = 0
KSC1 232100Z 16019G25KT 30/19 A2987 RMK A01 T02990194  RH  053%=      5-min Rain = 0
KSC1 232101Z 15016KT 30/19 A2987 RMK A01 T02990194  RH  053%=      5-min Rain = 0
KSC1 232102Z 16014G20KT 30/20 A2987 RMK A01 T02990198  RH  055%=      5-min Rain = 0
KSC1 232103Z 15017G23KT 30/20 A2987 RMK A01 T03010198  RH  054%=      5-min Rain = 0
KSC1 232104Z 14015G21KT 30/20 A2987 RMK A01 T03010197  RH  054%=      5-min Rain = 0
KSC1 232105Z 14017G23KT 30/20 A2986 RMK A01 T03020197  RH  054%=      5-min Rain = 0
KSC1 232106Z 14016KT 30/20 A2987 RMK A01 T03020197  RH  053%=      5-min Rain = 0
KSC1 232107Z 15018G26KT 30/20 A2987 RMK A01 T03020196  RH  053%=      5-min Rain = 0
KSC1 232108Z 15021G26KT 30/19 A2987 RMK A01 T03010194  RH  053%=      5-min Rain = 0
KSC1 232109Z 16017G22KT 30/19 A2987 RMK A01 T02990193  RH  053%=      5-min Rain = 0
KSC1 232110Z 15016G21KT 30/19 A2986 RMK A01 T02990194  RH  053%=      5-min Rain = 0
KSC1 232111Z 16016G22KT 30/20 A2986 RMK A01 T02990195  RH  054%=      5-min Rain = 0
KSC1 232112Z 15017KT 30/20 A2986 RMK A01 T02990196  RH  054%=      5-min Rain = 0
KSC1 232113Z 16016KT 30/20 A2986 RMK A01 T03000197  RH  054%=      5-min Rain = 0
KSC1 232114Z 15016G21KT 30/20 A2986 RMK A01 T03010197  RH  054%=      5-min Rain = 0
KSC1 232115Z 14017KT 30/20 A2986 RMK A01 T03010199  RH  054%=      5-min Rain = 0
KSC1 232116Z 14017G23KT 30/20 A2986 RMK A01 T03020198  RH  054%=      5-min Rain = 0
KSC1 232117Z 14020G25KT 30/20 A2986 RMK A01 T03020196  RH  053%=      5-min Rain = 0
KSC1 232118Z 14019KT 30/20 A2986 RMK A01 T03010195  RH  053%=      5-min Rain = 0
KSC1 232119Z 13016G24KT 30/20 A2986 RMK A01 T02990197  RH  054%=      5-min Rain = 0
KSC1 232120Z 13017G22KT 30/20 A2986 RMK A01 T02990197  RH  054%=      5-min Rain = 0
KSC1 232121Z 13018G23KT 30/20 A2986 RMK A01 T03000197  RH  054%=      5-min Rain = 0
KSC1 232122Z 13018KT 30/20 A2986 RMK A01 T03010196  RH  053%=      5-min Rain = 0
KSC1 232123Z 14014G19KT 30/20 A2986 RMK A01 T03010197  RH  054%=      5-min Rain = 0
KSC1 232124Z 13017KT 30/20 A2986 RMK A01 T03000197  RH  054%=      5-min Rain = 0
KSC1 232125Z 14015KT 30/20 A2986 RMK A01 T03010198  RH  054%=      5-min Rain = 0
KSC1 232126Z 14014KT 30/20 A2986 RMK A01 T03000198  RH  054%=      5-min Rain = 0
KSC1 232127Z 13014G20KT 30/20 A2986 RMK A01 T03010200  RH  055%=      5-min Rain = 0
KSC1 232128Z 12017G24KT 30/20 A2986 RMK A01 T03010199  RH  054%=      5-min Rain = 0
KSC1 232129Z 13017G23KT 30/20 A2986 RMK A01 T03020197  RH  054%=      5-min Rain = 0
KSC1 232130Z 13017KT 30/20 A2986 RMK A01 T03010195  RH  053%=      5-min Rain = 0
KSC1 232131Z 13021KT 30/20 A2986 RMK A01 T02990196  RH  054%=      5-min Rain = 0
KSC1 232132Z 15020G25KT 30/19 A2986 RMK A01 T02970192  RH  053%=      5-min Rain = 0
KSC1 232133Z 15019KT 30/19 A2986 RMK A01 T02960193  RH  054%=      5-min Rain = 0
KSC1 232134Z 14017G22KT 30/19 A2986 RMK A01 T02960192  RH  054%=      5-min Rain = 0
KSC1 232135Z 13016G21KT 30/20 A2986 RMK A01 T02970195  RH  054%=      5-min Rain = 0
KSC1 232136Z 13017KT 30/20 A2986 RMK A01 T02980195  RH  054%=      5-min Rain = 0
KSC1 232137Z 14016G21KT 30/20 A2986 RMK A01 T02980195  RH  054%=      5-min Rain = 0
KSC1 232138Z 15016G22KT 30/20 A2986 RMK A01 T02990196  RH  054%=      5-min Rain = 0
KSC1 232139Z 15019KT 30/19 A2986 RMK A01 T03000194  RH  053%=      5-min Rain = 0
KSC1 232140Z 15015KT 30/19 A2986 RMK A01 T03000194  RH  053%=      5-min Rain = 0
KSC1 232141Z 16015G21KT 30/20 A2986 RMK A01 T03000195  RH  054%=      5-min Rain = 0
KSC1 232142Z 15011G16KT 30/20 A2986 RMK A01 T03000197  RH  054%=      5-min Rain = 0
KSC1 232143Z 15012G17KT 30/20 A2986 RMK A01 T03020199  RH  054%=      5-min Rain = 0
KSC1 232144Z 15015G20KT 30/20 A2986 RMK A01 T03030197  RH  053%=      5-min Rain = 0
KSC1 232145Z 13014G26KT 30/20 A2986 RMK A01 T03030199  RH  054%=      5-min Rain = 0
KSC1 232146Z 14018G24KT 30/20 A2986 RMK A01 T03030195  RH  053%=      5-min Rain = 0
KSC1 232147Z 13017KT 30/19 A2986 RMK A01 T03000194  RH  053%=      5-min Rain = 0
KSC1 232148Z 13015G20KT 30/19 A2986 RMK A01 T02970194  RH  054%=      5-min Rain = 0
KSC1 232149Z 14014G19KT 29/19 A2986 RMK A01 T02940193  RH  054%=      5-min Rain = 0
KSC1 232150Z 13012KT 29/20 A2986 RMK A01 T02920195  RH  056%=      5-min Rain = 0
KSC1 232151Z 13016G21KT 29/19 A2986 RMK A01 T02930194  RH  055%=      5-min Rain = 0
KSC1 232152Z 14015KT 29/19 A2986 RMK A01 T02940194  RH  055%=      5-min Rain = 0
KSC1 232153Z 15017G23KT 30/19 A2986 RMK A01 T02950194  RH  055%=      5-min Rain = 0
KSC1 232154Z 15017G22KT 30/20 A2986 RMK A01 T02950195  RH  055%=      5-min Rain = 0
KSC1 232155Z 15018KT 30/19 A2986 RMK A01 T02970192  RH  053%=      5-min Rain = 0
KSC1 232156Z 15013KT 30/19 A2986 RMK A01 T02970193  RH  054%=      5-min Rain = 0
KSC1 232157Z 15010G15KT 30/20 A2986 RMK A01 T02970196  RH  055%=      5-min Rain = 0
KSC1 232158Z 16014G24KT 30/20 A2986 RMK A01 T02980196  RH  054%=      5-min Rain = 0
KSC1 232159Z 15015G21KT 30/19 A2986 RMK A01 T02990194  RH  053%=      5-min Rain = 0
KSC1 232200Z 14012G17KT 30/19 A2987 RMK A01 T02990193  RH  053%=      5-min Rain = 0
KSC1 232201Z 14011KT 30/19 A2987 RMK A01 T02990194  RH  053%=      5-min Rain = 0
KSC1 232202Z 15009KT 30/20 A2987 RMK A01 T03000197  RH  054%=      5-min Rain = 0
KSC1 232203Z 16016KT 30/20 A2986 RMK A01 T03020199  RH  054%=      5-min Rain = 0
KSC1 232204Z 16017KT 30/20 A2986 RMK A01 T03030195  RH  053%=      5-min Rain = 0
KSC1 232205Z 16018KT 30/20 A2986 RMK A01 T03010196  RH  053%=      5-min Rain = 0
KSC1 232206Z 15015G22KT 30/20 A2986 RMK A01 T03000196  RH  053%=      5-min Rain = 0
KSC1 232207Z 16014KT 30/20 A2986 RMK A01 T03000197  RH  054%=      5-min Rain = 0
KSC1 232208Z 15015G20KT 30/20 A2986 RMK A01 T02990195  RH  054%=      5-min Rain = 0
KSC1 232209Z 16017G24KT 30/20 A2986 RMK A01 T02980196  RH  054%=      5-min Rain = 0
KSC1 232210Z 15016KT 30/20 A2986 RMK A01 T02980195  RH  054%=      5-min Rain = 0
KSC1 232211Z 14014G19KT 30/20 A2986 RMK A01 T02980196  RH  054%=      5-min Rain = 0
KSC1 232212Z 13012G17KT 30/20 A2986 RMK A01 T03000200  RH  055%=      5-min Rain = 0
KSC1 232213Z 14012G17KT 30/20 A2986 RMK A01 T03030201  RH  054%=      5-min Rain = 0
KSC1 232214Z 13015G21KT 31/20 A2986 RMK A01 T03050200  RH  054%=      5-min Rain = 0
KSC1 232215Z 13015G21KT 31/20 A2986 RMK A01 T03060198  RH  053%=      5-min Rain = 0
KSC1 232216Z 13021KT 30/20 A2986 RMK A01 T03040197  RH  053%=      5-min Rain = 0
KSC1 232217Z 14017G23KT 30/20 A2986 RMK A01 T03020195  RH  053%=      5-min Rain = 0
KSC1 232218Z 14017G23KT 30/20 A2986 RMK A01 T03000195  RH  053%=      5-min Rain = 0
KSC1 232219Z 13018G23KT 30/20 A2986 RMK A01 T03000195  RH  053%=      5-min Rain = 0
KSC1 232220Z 13019G24KT 30/19 A2986 RMK A01 T02990194  RH  053%=      5-min Rain = 0
KSC1 232221Z 14015G22KT 30/20 A2986 RMK A01 T02980195  RH  054%=      5-min Rain = 0
KSC1 232222Z 14017G22KT 30/20 A2986 RMK A01 T02980195  RH  054%=      5-min Rain = 0
KSC1 232223Z 14015KT 30/19 A2986 RMK A01 T02970194  RH  054%=      5-min Rain = 0
KSC1 232224Z 14018KT 30/19 A2986 RMK A01 T02950193  RH  054%=      5-min Rain = 0
KSC1 232225Z 14015KT 29/19 A2986 RMK A01 T02920192  RH  055%=      5-min Rain = 0
KSC1 232226Z 14010G16KT 29/19 A2986 RMK A01 T02910193  RH  055%=      5-min Rain = 0
KSC1 232227Z 16012G19KT 29/19 A2986 RMK A01 T02920194  RH  056%=      5-min Rain = 0
KSC1 232228Z 14013G18KT 29/19 A2986 RMK A01 T02930194  RH  055%=      5-min Rain = 0
KSC1 232229Z 15013KT 29/19 A2986 RMK A01 T02940194  RH  055%=      5-min Rain = 0
KSC1 232230Z 15018KT 30/20 A2986 RMK A01 T02950196  RH  055%=      5-min Rain = 0
KSC1 232231Z 15018G23KT 30/19 A2986 RMK A01 T02960194  RH  054%=      5-min Rain = 0
KSC1 232232Z 14019G25KT 30/19 A2986 RMK A01 T02960193  RH  054%=      5-min Rain = 0
KSC1 232233Z 14016KT 30/19 A2986 RMK A01 T02950194  RH  055%=      5-min Rain = 0
KSC1 232234Z 15015G20KT 29/19 A2986 RMK A01 T02940194  RH  055%=      5-min Rain = 0
KSC1 232235Z 14014KT 29/20 A2986 RMK A01 T02940195  RH  055%=      5-min Rain = 0
KSC1 232236Z 13015G20KT 29/20 A2986 RMK A01 T02940196  RH  055%=      5-min Rain = 0
KSC1 232237Z 13015KT 29/20 A2986 RMK A01 T02940196  RH  056%=      5-min Rain = 0
KSC1 232238Z 13014KT 29/20 A2986 RMK A01 T02940197  RH  056%=      5-min Rain = 0
KSC1 232239Z 14011KT 29/20 A2986 RMK A01 T02940198  RH  056%=      5-min Rain = 0
KSC1 232240Z 13018G23KT 29/20 A2986 RMK A01 T02930196  RH  056%=      5-min Rain = 0
KSC1 232241Z 13017G24KT 29/19 A2986 RMK A01 T02920193  RH  055%=      5-min Rain = 0
KSC1 232242Z 13017KT 29/19 A2985 RMK A01 T02910194  RH  056%=      5-min Rain = 0
KSC1 232243Z 13018G23KT 29/19 A2985 RMK A01 T02920194  RH  055%=      5-min Rain = 0
KSC1 232244Z 13016G21KT 29/20 A2985 RMK A01 T02940195  RH  055%=      5-min Rain = 0
KSC1 232245Z 13015G21KT 30/20 A2985 RMK A01 T02950195  RH  055%=      5-min Rain = 0
KSC1 232246Z 14016KT 30/20 A2985 RMK A01 T02960195  RH  055%=      5-min Rain = 0
KSC1 232247Z 13015KT 30/20 A2985 RMK A01 T02960196  RH  055%=      5-min Rain = 0
KSC1 232248Z 12016KT 30/20 A2985 RMK A01 T02970195  RH  054%=      5-min Rain = 0
KSC1 232249Z 13018G25KT 30/20 A2985 RMK A01 T02970195  RH  054%=      5-min Rain = 0
KSC1 232250Z 13017G23KT 30/20 A2985 RMK A01 T02970195  RH  054%=      5-min Rain = 0
KSC1 232251Z 13015KT 30/20 A2985 RMK A01 T02960195  RH  054%=      5-min Rain = 0
KSC1 232252Z 13019KT 30/19 A2985 RMK A01 T02960194  RH  054%=      5-min Rain = 0
KSC1 232253Z 13015G20KT 30/19 A2985 RMK A01 T02950193  RH  054%=      5-min Rain = 0
KSC1 232254Z 14014G20KT 30/20 A2985 RMK A01 T02950196  RH  055%=      5-min Rain = 0
KSC1 232255Z 13016KT 30/19 A2985 RMK A01 T02960194  RH  054%=      5-min Rain = 0
KSC1 232256Z 13018KT 30/19 A2985 RMK A01 T02960194  RH  054%=      5-min Rain = 0
KSC1 232257Z 14015KT 30/20 A2985 RMK A01 T02960195  RH  054%=      5-min Rain = 0
KSC1 232258Z 14019KT 30/19 A2985 RMK A01 T02970194  RH  054%=      5-min Rain = 0
KSC1 232259Z 13018G23KT 30/19 A2985 RMK A01 T02970193  RH  054%=      5-min Rain = 0
KSC1 232300Z 14018G24KT 30/19 A2985 RMK A01 T02960193  RH  054%=      5-min Rain = 0
KSC1 232301Z 14018KT 30/19 A2985 RMK A01 T02960193  RH  054%=      5-min Rain = 0
KSC1 232302Z 15016KT 30/19 A2985 RMK A01 T02960192  RH  054%=      5-min Rain = 0
KSC1 232303Z 15014KT 30/19 A2985 RMK A01 T02960194  RH  054%=      5-min Rain = 0
KSC1 232304Z 15014KT 30/20 A2985 RMK A01 T02960195  RH  055%=      5-min Rain = 0
KSC1 232305Z 14016KT 30/20 A2985 RMK A01 T02960195  RH  055%=      5-min Rain = 0
KSC1 232306Z 14014G19KT 30/19 A2985 RMK A01 T02970194  RH  054%=      5-min Rain = 0
KSC1 232307Z 14017KT 30/19 A2985 RMK A01 T02970194  RH  054%=      5-min Rain = 0
KSC1 232308Z 13014KT 30/20 A2985 RMK A01 T02970195  RH  055%=      5-min Rain = 0
KSC1 232309Z 13012G18KT 30/20 A2985 RMK A01 T02970199  RH  055%=      5-min Rain = 0
KSC1 232310Z 14019G24KT 30/20 A2985 RMK A01 T02990198  RH  055%=      5-min Rain = 0
KSC1 232311Z 13014G20KT 30/20 A2985 RMK A01 T02990197  RH  054%=      5-min Rain = 0
KSC1 232312Z 13016KT 30/20 A2985 RMK A01 T02990197  RH  055%=      5-min Rain = 0
KSC1 232313Z 13017G23KT 30/20 A2985 RMK A01 T02980197  RH  054%=      5-min Rain = 0
KSC1 232314Z 13015KT 30/20 A2985 RMK A01 T02980196  RH  054%=      5-min Rain = 0
KSC1 232315Z 13012G17KT 30/20 A2985 RMK A01 T02970198  RH  055%=      5-min Rain = 0
KSC1 232316Z 12012G17KT 30/20 A2985 RMK A01 T02980199  RH  055%=      5-min Rain = 0
KSC1 232317Z 12013KT 30/20 A2985 RMK A01 T02970200  RH  056%=      5-min Rain = 0
KSC1 232318Z 13018G25KT 30/20 A2985 RMK A01 T02980197  RH  055%=      5-min Rain = 0
KSC1 232319Z 13019G24KT 30/20 A2985 RMK A01 T02970195  RH  054%=      5-min Rain = 0
KSC1 232320Z 14012G17KT 30/20 A2985 RMK A01 T02950196  RH  055%=      5-min Rain = 0
KSC1 232321Z 14013KT 30/20 A2984 RMK A01 T02950198  RH  056%=      5-min Rain = 0
KSC1 232322Z 13011KT 30/20 A2984 RMK A01 T02950198  RH  056%=      5-min Rain = 0
KSC1 232323Z 13012KT 30/20 A2984 RMK A01 T02950198  RH  056%=      5-min Rain = 0
KSC1 232324Z 13018G23KT 30/20 A2984 RMK A01 T02950197  RH  056%=      5-min Rain = 0
KSC1 232325Z 14017G22KT 30/20 A2984 RMK A01 T02950195  RH  055%=      5-min Rain = 0
KSC1 232326Z 15016KT 30/19 A2984 RMK A01 T02950194  RH  055%=      5-min Rain = 0
KSC1 232327Z 14016KT 29/19 A2984 RMK A01 T02940193  RH  054%=      5-min Rain = 0
KSC1 232328Z 14013KT 30/20 A2984 RMK A01 T02950195  RH  055%=      5-min Rain = 0
KSC1 232329Z 14014G19KT 30/20 A2984 RMK A01 T02950195  RH  055%=      5-min Rain = 0
KSC1 232330Z 14015KT 30/20 A2984 RMK A01 T02950195  RH  055%=      5-min Rain = 0
KSC1 232331Z 14014G19KT 30/19 A2984 RMK A01 T02950194  RH  055%=      5-min Rain = 0
KSC1 232332Z 15017G24KT 30/19 A2984 RMK A01 T02950193  RH  054%=      5-min Rain = 0
KSC1 232333Z 14017G24KT 30/19 A2984 RMK A01 T02950192  RH  054%=      5-min Rain = 0
KSC1 232334Z 15013G19KT 30/19 A2984 RMK A01 T02950194  RH  055%=      5-min Rain = 0
KSC1 232335Z 14017KT 29/19 A2984 RMK A01 T02940193  RH  055%=      5-min Rain = 0
KSC1 232336Z 14017G22KT 29/19 A2984 RMK A01 T02940193  RH  054%=      5-min Rain = 0
KSC1 232337Z 15015G20KT 29/19 A2984 RMK A01 T02940193  RH  054%=      5-min Rain = 0
KSC1 232338Z 15018KT 29/19 A2984 RMK A01 T02940193  RH  054%=      5-min Rain = 0
KSC1 232339Z 15013KT 29/19 A2984 RMK A01 T02940192  RH  054%=      5-min Rain = 0
KSC1 232340Z 14012KT 29/19 A2984 RMK A01 T02940194  RH  055%=      5-min Rain = 0
KSC1 232341Z 15013G21KT 29/19 A2984 RMK A01 T02940194  RH  055%=      5-min Rain = 0
KSC1 232342Z 14016KT 29/19 A2984 RMK A01 T02940193  RH  055%=      5-min Rain = 0
KSC1 232343Z 13016KT 29/19 A2984 RMK A01 T02940194  RH  055%=      5-min Rain = 0
KSC1 232344Z 14014G19KT 29/19 A2984 RMK A01 T02940194  RH  055%=      5-min Rain = 0
KSC1 232345Z 14016KT 29/20 A2984 RMK A01 T02940195  RH  055%=      5-min Rain = 0
KSC1 232346Z 14012KT 29/19 A2984 RMK A01 T02940194  RH  055%=      5-min Rain = 0
KSC1 232347Z 13014G19KT 29/20 A2984 RMK A01 T02930195  RH  055%=      5-min Rain = 0
KSC1 232348Z 13014KT 29/20 A2984 RMK A01 T02930195  RH  055%=      5-min Rain = 0
KSC1 232349Z 14015G20KT 29/20 A2984 RMK A01 T02940196  RH  056%=      5-min Rain = 0
KSC1 232350Z 13019G26KT 29/19 A2984 RMK A01 T02940194  RH  055%=      5-min Rain = 0
KSC1 232351Z 13020KT 29/19 A2984 RMK A01 T02930193  RH  055%=      5-min Rain = 0
KSC1 232352Z 13021KT 29/19 A2984 RMK A01 T02920191  RH  054%=      5-min Rain = 0
KSC1 232353Z 13020KT 29/19 A2984 RMK A01 T02910190  RH  054%=      5-min Rain = 0
KSC1 232354Z 13017KT 29/19 A2984 RMK A01 T02910191  RH  055%=      5-min Rain = 0
KSC1 232355Z 13017G22KT 29/19 A2984 RMK A01 T02910191  RH  055%=      5-min Rain = 0
KSC1 232356Z 13019G25KT 29/19 A2984 RMK A01 T02910191  RH  055%=      5-min Rain = 0
KSC1 232357Z 14017G25KT 29/19 A2984 RMK A01 T02900191  RH  055%=      5-min Rain = 0
KSC1 232358Z 14018G24KT 29/19 A2984 RMK A01 T02890191  RH  055%=      5-min Rain = 0
KSC1 232359Z 14019KT 29/19 A2984 RMK A01 T02890190  RH  055%=      5-min Rain = 0
KSC1 240000Z 14017G23KT 29/19 A2984 RMK A01 T02890190  RH  055%=      5-min Rain = 0
KSC1 240001Z 14017KT 29/19 A2984 RMK A01 T02890191  RH  055%=      5-min Rain = 0
KSC1 240002Z 13016G21KT 29/19 A2984 RMK A01 T02890191  RH  056%=      5-min Rain = 0
KSC1 240003Z 15016KT 29/19 A2984 RMK A01 T02890191  RH  056%=      5-min Rain = 0
KSC1 240004Z 14011G17KT 29/19 A2984 RMK A01 T02890192  RH  056%=      5-min Rain = 0
KSC1 240005Z 14014KT 29/19 A2984 RMK A01 T02890192  RH  056%=      5-min Rain = 0
KSC1 240006Z 14015G21KT 29/19 A2984 RMK A01 T02890192  RH  056%=      5-min Rain = 0
KSC1 240007Z 15012G21KT 29/19 A2984 RMK A01 T02880192  RH  056%=      5-min Rain = 0
KSC1 240008Z 14018G23KT 29/19 A2984 RMK A01 T02880191  RH  056%=      5-min Rain = 0
KSC1 240009Z 14015G20KT 29/19 A2984 RMK A01 T02880190  RH  055%=      5-min Rain = 0
KSC1 240010Z 14013G18KT 29/19 A2984 RMK A01 T02880191  RH  056%=      5-min Rain = 0
KSC1 240011Z 14016KT 29/19 A2984 RMK A01 T02880191  RH  056%=      5-min Rain = 0
KSC1 240012Z 15016KT 29/19 A2984 RMK A01 T02880190  RH  056%=      5-min Rain = 0
KSC1 240013Z 14013KT 29/19 A2984 RMK A01 T02870190  RH  056%=      5-min Rain = 0
KSC1 240014Z 14012KT 29/19 A2984 RMK A01 T02870191  RH  056%=      5-min Rain = 0
KSC1 240015Z 14012G17KT 29/19 A2984 RMK A01 T02870192  RH  056%=      5-min Rain = 0
KSC1 240016Z 14013G18KT 29/19 A2984 RMK A01 T02870192  RH  056%=      5-min Rain = 0
KSC1 240017Z 14018G24KT 29/19 A2984 RMK A01 T02870191  RH  056%=      5-min Rain = 0
KSC1 240018Z 14017G22KT 29/19 A2984 RMK A01 T02870191  RH  056%=      5-min Rain = 0
KSC1 240019Z 14014KT 29/19 A2984 RMK A01 T02870191  RH  056%=      5-min Rain = 0
KSC1 240020Z 13014KT 29/19 A2984 RMK A01 T02870192  RH  056%=      5-min Rain = 0
KSC1 240021Z 14014KT 29/19 A2984 RMK A01 T02870191  RH  056%=      5-min Rain = 0
KSC1 240022Z 14013KT 29/19 A2984 RMK A01 T02870192  RH  056%=      5-min Rain = 0
KSC1 240023Z 14016KT 29/19 A2984 RMK A01 T02870192  RH  056%=      5-min Rain = 0
KSC1 240024Z 14015G20KT 29/19 A2984 RMK A01 T02860191  RH  056%=      5-min Rain = 0
KSC1 240025Z 14016KT 29/19 A2984 RMK A01 T02870191  RH  056%=      5-min Rain = 0
KSC1 240026Z 14016G22KT 29/19 A2984 RMK A01 T02860191  RH  056%=      5-min Rain = 0
KSC1 240027Z 14015KT 29/19 A2984 RMK A01 T02860192  RH  057%=      5-min Rain = 0
KSC1 240028Z 13013KT 29/19 A2984 RMK A01 T02860192  RH  057%=      5-min Rain = 0
KSC1 240029Z 14016KT 29/19 A2984 RMK A01 T02860192  RH  057%=      5-min Rain = 0
KSC1 240030Z 14015KT 29/19 A2984 RMK A01 T02860192  RH  057%=      5-min Rain = 0
KSC1 240031Z 13014KT 29/19 A2984 RMK A01 T02860191  RH  057%=      5-min Rain = 0
KSC1 240032Z 13013KT 29/19 A2984 RMK A01 T02850192  RH  057%=      5-min Rain = 0
KSC1 240033Z 14011KT 29/19 A2984 RMK A01 T02850192  RH  057%=      5-min Rain = 0
KSC1 240034Z 14012KT 28/19 A2984 RMK A01 T02840192  RH  057%=      5-min Rain = 0
KSC1 240035Z 14012KT 28/19 A2984 RMK A01 T02840192  RH  058%=      5-min Rain = 0
KSC1 240036Z 13013KT 28/19 A2984 RMK A01 T02830192  RH  058%=      5-min Rain = 0
KSC1 240037Z 14011KT 28/19 A2984 RMK A01 T02830192  RH  058%=      5-min Rain = 0
KSC1 240038Z 14017KT 28/19 A2984 RMK A01 T02830191  RH  058%=      5-min Rain = 0
KSC1 240039Z 15014G21KT 28/19 A2984 RMK A01 T02830190  RH  057%=      5-min Rain = 0
KSC1 240040Z 14011KT 28/19 A2984 RMK A01 T02830191  RH  057%=      5-min Rain = 0
KSC1 240041Z 13012G17KT 28/19 A2984 RMK A01 T02830191  RH  057%=      5-min Rain = 0
KSC1 240042Z 13009KT 28/19 A2984 RMK A01 T02830191  RH  058%=      5-min Rain = 0
KSC1 240043Z 14013G20KT 28/19 A2984 RMK A01 T02820191  RH  058%=      5-min Rain = 0
KSC1 240044Z 13012KT 28/19 A2984 RMK A01 T02820190  RH  057%=      5-min Rain = 0
KSC1 240045Z 13014KT 28/19 A2984 RMK A01 T02820191  RH  058%=      5-min Rain = 0
KSC1 240046Z 13012KT 28/19 A2984 RMK A01 T02820190  RH  057%=      5-min Rain = 0
KSC1 240047Z 14011G20KT 28/19 A2984 RMK A01 T02820191  RH  058%=      5-min Rain = 0
KSC1 240048Z 13013G18KT 28/19 A2984 RMK A01 T02820190  RH  057%=      5-min Rain = 0
KSC1 240049Z 14013KT 28/19 A2984 RMK A01 T02820190  RH  057%=      5-min Rain = 0
KSC1 240050Z 14014G20KT 28/19 A2984 RMK A01 T02820190  RH  057%=      5-min Rain = 0
KSC1 240051Z 14013KT 28/19 A2984 RMK A01 T02820189  RH  057%=      5-min Rain = 0
KSC1 240052Z 13011G16KT 28/19 A2984 RMK A01 T02820189  RH  057%=      5-min Rain = 0
KSC1 240053Z 13014KT 28/19 A2984 RMK A01 T02820190  RH  057%=      5-min Rain = 0
KSC1 240054Z 14011G16KT 28/19 A2984 RMK A01 T02810189  RH  057%=      5-min Rain = 0
KSC1 240055Z 13013KT 28/19 A2984 RMK A01 T02810189  RH  057%=      5-min Rain = 0
KSC1 240056Z 14013G19KT 28/19 A2984 RMK A01 T02810189  RH  057%=      5-min Rain = 0
KSC1 240057Z 14012KT 28/19 A2984 RMK A01 T02810189  RH  057%=      5-min Rain = 0
KSC1 240058Z 13013KT 28/19 A2984 RMK A01 T02800188  RH  057%=      5-min Rain = 0
KSC1 240059Z 13012KT 28/19 A2984 RMK A01 T02800188  RH  057%=      5-min Rain = 0
KSC1 240100Z 14014KT 28/19 A2984 RMK A01 T02800188  RH  057%=      5-min Rain = 0
KSC1 240101Z 14012G17KT 28/19 A2984 RMK A01 T02800188  RH  057%=      5-min Rain = 0
KSC1 240102Z 14012KT 28/19 A2984 RMK A01 T02800189  RH  058%=      5-min Rain = 0
KSC1 240103Z 14013G18KT 28/19 A2984 RMK A01 T02790188  RH  058%=      5-min Rain = 0
KSC1 240104Z 13012KT 28/19 A2984 RMK A01 T02780188  RH  058%=      5-min Rain = 0
KSC1 240105Z 14012KT 28/19 A2984 RMK A01 T02780188  RH  058%=      5-min Rain = 0
KSC1 240106Z 14011KT 28/19 A2984 RMK A01 T02780188  RH  058%=      5-min Rain = 0
KSC1 240107Z 14011KT 28/19 A2984 RMK A01 T02780188  RH  058%=      5-min Rain = 0
KSC1 240108Z 13009KT 28/19 A2984 RMK A01 T02770189  RH  059%=      5-min Rain = 0
KSC1 240109Z 14013KT 28/19 A2984 RMK A01 T02760189  RH  059%=      5-min Rain = 0
KSC1 240110Z 13013KT 28/19 A2984 RMK A01 T02760189  RH  059%=      5-min Rain = 0
KSC1 240111Z 14013KT 28/19 A2984 RMK A01 T02760189  RH  059%=      5-min Rain = 0
KSC1 240112Z 14012KT 28/19 A2984 RMK A01 T02760189  RH  059%=      5-min Rain = 0
KSC1 240113Z 13016G22KT 28/19 A2984 RMK A01 T02760189  RH  059%=      5-min Rain = 0
KSC1 240114Z 14012KT 28/19 A2984 RMK A01 T02760189  RH  059%=      5-min Rain = 0
KSC1 240115Z 14012KT 28/19 A2984 RMK A01 T02760190  RH  059%=      5-min Rain = 0
KSC1 240116Z 13011G16KT 28/19 A2984 RMK A01 T02750190  RH  060%=      5-min Rain = 0
KSC1 240117Z 14012KT 28/19 A2984 RMK A01 T02750190  RH  060%=      5-min Rain = 0
KSC1 240118Z 14014G20KT 28/19 A2984 RMK A01 T02750190  RH  060%=      5-min Rain = 0
KSC1 240119Z 14014KT 27/19 A2984 RMK A01 T02740190  RH  060%=      5-min Rain = 0
KSC1 240120Z 14013G18KT 27/19 A2984 RMK A01 T02740190  RH  060%=      5-min Rain = 0
KSC1 240121Z 14014KT 27/19 A2984 RMK A01 T02740190  RH  060%=      5-min Rain = 0
KSC1 240122Z 14012G17KT 27/19 A2984 RMK A01 T02740190  RH  060%=      5-min Rain = 0
KSC1 240123Z 14014G20KT 27/19 A2984 RMK A01 T02740190  RH  060%=      5-min Rain = 0
KSC1 240124Z 14017G22KT 27/19 A2984 RMK A01 T02740189  RH  060%=      5-min Rain = 0
KSC1 240125Z 13015KT 27/19 A2984 RMK A01 T02740188  RH  060%=      5-min Rain = 0
KSC1 240126Z 13012KT 27/19 A2984 RMK A01 T02740188  RH  059%=      5-min Rain = 0
KSC1 240127Z 14014KT 27/19 A2984 RMK A01 T02740189  RH  060%=      5-min Rain = 0
KSC1 240128Z 14012G18KT 27/19 A2984 RMK A01 T02740189  RH  060%=      5-min Rain = 0
KSC1 240129Z 13013G19KT 27/19 A2984 RMK A01 T02730188  RH  060%=      5-min Rain = 0
KSC1 240130Z 14015G20KT 27/19 A2984 RMK A01 T02730188  RH  060%=      5-min Rain = 0
KSC1 240131Z 14013G18KT 27/19 A2984 RMK A01 T02730188  RH  060%=      5-min Rain = 0
KSC1 240132Z 13014KT 27/19 A2984 RMK A01 T02730188  RH  060%=      5-min Rain = 0
KSC1 240133Z 14015G20KT 27/19 A2984 RMK A01 T02720187  RH  060%=      5-min Rain = 0
KSC1 240134Z 14015KT 27/19 A2984 RMK A01 T02720187  RH  060%=      5-min Rain = 0
KSC1 240135Z 14014G19KT 27/19 A2984 RMK A01 T02720187  RH  059%=      5-min Rain = 0
KSC1 240136Z 13016G21KT 27/19 A2984 RMK A01 T02720186  RH  059%=      5-min Rain = 0
KSC1 240137Z 14013G18KT 27/19 A2984 RMK A01 T02720186  RH  059%=      5-min Rain = 0
KSC1 240138Z 13013KT 27/19 A2984 RMK A01 T02720186  RH  059%=      5-min Rain = 0
KSC1 240139Z 13013G18KT 27/19 A2984 RMK A01 T02720187  RH  060%=      5-min Rain = 0
KSC1 240140Z 14014KT 27/19 A2985 RMK A01 T02710187  RH  060%=      5-min Rain = 0
KSC1 240141Z 14013G19KT 27/19 A2985 RMK A01 T02710187  RH  060%=      5-min Rain = 0
KSC1 240142Z 14013G18KT 27/19 A2985 RMK A01 T02710186  RH  060%=      5-min Rain = 0
KSC1 240143Z 14011KT 27/19 A2985 RMK A01 T02710187  RH  060%=      5-min Rain = 0
KSC1 240144Z 14015KT 27/19 A2985 RMK A01 T02700186  RH  060%=      5-min Rain = 0
KSC1 240145Z 14014G19KT 27/19 A2985 RMK A01 T02700187  RH  060%=      5-min Rain = 0
KSC1 240146Z 13011G16KT 27/19 A2985 RMK A01 T02700186  RH  060%=      5-min Rain = 0
KSC1 240147Z 14011KT 27/19 A2985 RMK A01 T02700187  RH  060%=      5-min Rain = 0
KSC1 240148Z 14010KT 27/19 A2985 RMK A01 T02700187  RH  061%=      5-min Rain = 0
KSC1 240149Z 14012KT 27/19 A2985 RMK A01 T02680187  RH  061%=      5-min Rain = 0
KSC1 240150Z 13013KT 27/19 A2985 RMK A01 T02680187  RH  061%=      5-min Rain = 0
KSC1 240151Z 14012G17KT 27/19 A2985 RMK A01 T02680187  RH  061%=      5-min Rain = 0
KSC1 240152Z 14013G18KT 27/19 A2985 RMK A01 T02680187  RH  061%=      5-min Rain = 0
KSC1 240153Z 13012KT 27/19 A2985 RMK A01 T02680187  RH  061%=      5-min Rain = 0
KSC1 240154Z 13013KT 27/19 A2986 RMK A01 T02680187  RH  061%=      5-min Rain = 0
KSC1 240155Z 13011KT 27/19 A2986 RMK A01 T02670187  RH  061%=      5-min Rain = 0
KSC1 240156Z 13011KT 27/19 A2986 RMK A01 T02670188  RH  062%=      5-min Rain = 0
KSC1 240157Z 13010G16KT 27/19 A2985 RMK A01 T02660188  RH  062%=      5-min Rain = 0
KSC1 240158Z 13011KT 27/19 A2985 RMK A01 T02650188  RH  063%=      5-min Rain = 0
KSC1 240159Z 13013KT 27/19 A2986 RMK A01 T02650188  RH  063%=      5-min Rain = 0
KSC1 240200Z 13012KT 26/19 A2986 RMK A01 T02640188  RH  063%=      5-min Rain = 0
KSC1 240201Z 13011KT 26/19 A2986 RMK A01 T02640187  RH  063%=      5-min Rain = 0
KSC1 240202Z 13011KT 26/19 A2986 RMK A01 T02640188  RH  063%=      5-min Rain = 0
KSC1 240203Z 13012KT 26/19 A2986 RMK A01 T02640188  RH  063%=      5-min Rain = 0
KSC1 240204Z 13009KT 26/19 A2986 RMK A01 T02640188  RH  063%=      5-min Rain = 0
KSC1 240205Z 13011KT 26/19 A2986 RMK A01 T02630188  RH  063%=      5-min Rain = 0
KSC1 240206Z 13010KT 26/19 A2986 RMK A01 T02630188  RH  064%=      5-min Rain = 0
KSC1 240207Z 13009KT 26/19 A2986 RMK A01 T02620188  RH  064%=      5-min Rain = 0
KSC1 240208Z 13009KT 26/19 A2986 RMK A01 T02620188  RH  064%=      5-min Rain = 0
KSC1 240209Z 13010KT 26/19 A2986 RMK A01 T02610188  RH  064%=      5-min Rain = 0
KSC1 240210Z 13010KT 26/19 A2986 RMK A01 T02600188  RH  065%=      5-min Rain = 0
KSC1 240211Z 13009KT 26/19 A2986 RMK A01 T02600189  RH  065%=      5-min Rain = 0
KSC1 240212Z 13010KT 26/19 A2986 RMK A01 T02600189  RH  065%=      5-min Rain = 0
KSC1 240213Z 13009KT 26/19 A2986 RMK A01 T02590189  RH  065%=      5-min Rain = 0
KSC1 240214Z 13009KT 26/19 A2986 RMK A01 T02590189  RH  065%=      5-min Rain = 0
KSC1 240215Z 13009KT 26/19 A2986 RMK A01 T02580189  RH  066%=      5-min Rain = 0
KSC1 240216Z 13011KT 26/19 A2986 RMK A01 T02580189  RH  066%=      5-min Rain = 0
KSC1 240217Z 13010KT 26/19 A2986 RMK A01 T02580189  RH  065%=      5-min Rain = 0
KSC1 240218Z 14009KT 26/19 A2986 RMK A01 T02580189  RH  065%=      5-min Rain = 0
KSC1 240219Z 13008KT 26/19 A2986 RMK A01 T02580189  RH  066%=      5-min Rain = 0
KSC1 240220Z 14011KT 26/19 A2986 RMK A01 T02580189  RH  066%=      5-min Rain = 0
KSC1 240221Z 13010KT 26/19 A2986 RMK A01 T02580190  RH  066%=      5-min Rain = 0
KSC1 240222Z 13010KT 26/19 A2987 RMK A01 T02580189  RH  066%=      5-min Rain = 0
KSC1 240223Z 13010KT 26/19 A2987 RMK A01 T02580189  RH  066%=      5-min Rain = 0
KSC1 240224Z 13009KT 26/19 A2987 RMK A01 T02570189  RH  066%=      5-min Rain = 0
KSC1 240225Z 13009KT 26/19 A2987 RMK A01 T02580189  RH  066%=      5-min Rain = 0
KSC1 240226Z 13010KT 26/19 A2987 RMK A01 T02580189  RH  066%=      5-min Rain = 0
KSC1 240227Z 13008KT 26/19 A2987 RMK A01 T02570189  RH  066%=      5-min Rain = 0
KSC1 240228Z 12010KT 26/19 A2987 RMK A01 T02570189  RH  066%=      5-min Rain = 0
KSC1 240229Z 13010KT 26/19 A2987 RMK A01 T02570189  RH  066%=      5-min Rain = 0
KSC1 240230Z 13010KT 26/19 A2987 RMK A01 T02570189  RH  066%=      5-min Rain = 0
KSC1 240231Z 13009KT 26/19 A2987 RMK A01 T02570189  RH  066%=      5-min Rain = 0
KSC1 240232Z 13010KT 26/19 A2987 RMK A01 T02560189  RH  066%=      5-min Rain = 0
KSC1 240233Z 13008KT 26/19 A2987 RMK A01 T02570189  RH  066%=      5-min Rain = 0
KSC1 240234Z 13009KT 26/19 A2987 RMK A01 T02560189  RH  066%=      5-min Rain = 0
KSC1 240235Z 13010KT 26/19 A2987 RMK A01 T02560189  RH  066%=      5-min Rain = 0
KSC1 240236Z 13010KT 26/19 A2987 RMK A01 T02560189  RH  066%=      5-min Rain = 0
KSC1 240237Z 12009KT 26/19 A2987 RMK A01 T02560189  RH  067%=      5-min Rain = 0
KSC1 240238Z 13008KT 26/19 A2987 RMK A01 T02550189  RH  067%=      5-min Rain = 0
KSC1 240239Z 13008KT 25/19 A2987 RMK A01 T02540189  RH  067%=      5-min Rain = 0
KSC1 240240Z 13009KT 25/19 A2987 RMK A01 T02540189  RH  067%=      5-min Rain = 0
KSC1 240241Z 12008KT 25/19 A2987 RMK A01 T02540189  RH  067%=      5-min Rain = 0
KSC1 240242Z 12009KT 25/19 A2987 RMK A01 T02530189  RH  068%=      5-min Rain = 0
KSC1 240243Z 13008KT 25/19 A2987 RMK A01 T02530189  RH  068%=      5-min Rain = 0
KSC1 240244Z 13008KT 25/19 A2987 RMK A01 T02520189  RH  068%=      5-min Rain = 0
KSC1 240245Z 13009KT 25/19 A2987 RMK A01 T02520189  RH  068%=      5-min Rain = 0
KSC1 240246Z 13011KT 25/19 A2987 RMK A01 T02520189  RH  068%=      5-min Rain = 0
KSC1 240247Z 12009KT 25/19 A2987 RMK A01 T02530189  RH  067%=      5-min Rain = 0
KSC1 240248Z 12009KT 25/19 A2987 RMK A01 T02540189  RH  067%=      5-min Rain = 0
KSC1 240249Z 12009KT 25/19 A2987 RMK A01 T02540189  RH  067%=      5-min Rain = 0
KSC1 240250Z 12011KT 25/19 A2987 RMK A01 T02540189  RH  067%=      5-min Rain = 0
KSC1 240251Z 12010KT 25/19 A2987 RMK A01 T02540189  RH  067%=      5-min Rain = 0
KSC1 240252Z 13009KT 25/19 A2987 RMK A01 T02540189  RH  067%=      5-min Rain = 0
KSC1 240253Z 13009KT 25/19 A2987 RMK A01 T02540189  RH  067%=      5-min Rain = 0
KSC1 240254Z 13011KT 25/19 A2987 RMK A01 T02540189  RH  067%=      5-min Rain = 0
KSC1 240255Z 13010KT 25/19 A2987 RMK A01 T02540189  RH  067%=      5-min Rain = 0
KSC1 240256Z 12010KT 25/19 A2987 RMK A01 T02540189  RH  067%=      5-min Rain = 0
KSC1 240257Z 12010KT 25/19 A2987 RMK A01 T02540190  RH  068%=      5-min Rain = 0
KSC1 240258Z 12012KT 25/19 A2987 RMK A01 T02540190  RH  068%=      5-min Rain = 0
KSC1 240259Z 12011KT 25/19 A2987 RMK A01 T02530190  RH  068%=      5-min Rain = 0
KSC1 240300Z 13011KT 25/19 A2987 RMK A01 T02530190  RH  068%=      5-min Rain = 0
KSC1 240301Z 12012KT 25/19 A2987 RMK A01 T02530190  RH  068%=      5-min Rain = 0
KSC1 240302Z 13011KT 25/19 A2987 RMK A01 T02530189  RH  068%=      5-min Rain = 0
KSC1 240303Z 13011G16KT 25/19 A2987 RMK A01 T02540189  RH  067%=      5-min Rain = 0
KSC1 240304Z 12011KT 25/19 A2987 RMK A01 T02540190  RH  068%=      5-min Rain = 0
KSC1 240305Z 13011KT 25/19 A2987 RMK A01 T02540190  RH  068%=      5-min Rain = 0
KSC1 240306Z 13012KT 25/19 A2987 RMK A01 T02530190  RH  068%=      5-min Rain = 0
KSC1 240307Z 12012KT 25/19 A2987 RMK A01 T02530190  RH  068%=      5-min Rain = 0
KSC1 240308Z 12014KT 25/19 A2987 RMK A01 T02530189  RH  068%=      5-min Rain = 0
KSC1 240309Z 13011KT 25/19 A2987 RMK A01 T02530189  RH  068%=      5-min Rain = 0
KSC1 240310Z 13010KT 25/19 A2987 RMK A01 T02540190  RH  068%=      5-min Rain = 0
KSC1 240311Z 12011KT 25/19 A2988 RMK A01 T02540190  RH  068%=      5-min Rain = 0
KSC1 240312Z 12012KT 25/19 A2988 RMK A01 T02530190  RH  068%=      5-min Rain = 0
KSC1 240313Z 12010KT 25/19 A2988 RMK A01 T02530190  RH  068%=      5-min Rain = 0
KSC1 240314Z 12010KT 25/19 A2988 RMK A01 T02530190  RH  068%=      5-min Rain = 0
KSC1 240315Z 12011KT 25/19 A2987 RMK A01 T02520190  RH  068%=      5-min Rain = 0
KSC1 240316Z 12011KT 25/19 A2988 RMK A01 T02510189  RH  068%=      5-min Rain = 0
KSC1 240317Z 12012KT 25/19 A2987 RMK A01 T02520190  RH  068%=      5-min Rain = 0
KSC1 240318Z 12013KT 25/19 A2988 RMK A01 T02520189  RH  068%=      5-min Rain = 0
KSC1 240319Z 13011KT 25/19 A2988 RMK A01 T02520189  RH  068%=      5-min Rain = 0
KSC1 240320Z 12010KT 25/19 A2988 RMK A01 T02530189  RH  068%=      5-min Rain = 0
KSC1 240321Z 12013KT 25/19 A2988 RMK A01 T02530190  RH  068%=      5-min Rain = 0
KSC1 240322Z 12012KT 25/19 A2988 RMK A01 T02530189  RH  068%=      5-min Rain = 0
KSC1 240323Z 12014KT 25/19 A2988 RMK A01 T02530189  RH  068%=      5-min Rain = 0
KSC1 240324Z 13011G16KT 25/19 A2988 RMK A01 T02530189  RH  068%=      5-min Rain = 0
KSC1 240325Z 13012KT 25/19 A2988 RMK A01 T02530189  RH  068%=      5-min Rain = 0
KSC1 240326Z 12012KT 25/19 A2988 RMK A01 T02530190  RH  068%=      5-min Rain = 0
KSC1 240327Z 12011KT 25/19 A2988 RMK A01 T02530190  RH  068%=      5-min Rain = 0
KSC1 240328Z 12011KT 25/19 A2988 RMK A01 T02530190  RH  068%=      5-min Rain = 0
KSC1 240329Z 12011KT 25/19 A2988 RMK A01 T02530190  RH  068%=      5-min Rain = 0
KSC1 240330Z 12011KT 25/19 A2988 RMK A01 T02520190  RH  068%=      5-min Rain = 0
KSC1 240331Z 12013KT 25/19 A2988 RMK A01 T02520190  RH  068%=      5-min Rain = 0
KSC1 240332Z 12011KT 25/19 A2988 RMK A01 T02520189  RH  068%=      5-min Rain = 0
KSC1 240333Z 12014KT 25/19 A2988 RMK A01 T02520190  RH  068%=      5-min Rain = 0
KSC1 240334Z 12015KT 25/19 A2988 RMK A01 T02520189  RH  068%=      5-min Rain = 0
KSC1 240335Z 12012KT 25/19 A2988 RMK A01 T02530189  RH  068%=      5-min Rain = 0
KSC1 240336Z 12013KT 25/19 A2988 RMK A01 T02540190  RH  068%=      5-min Rain = 0
KSC1 240337Z 12011KT 25/19 A2988 RMK A01 T02530190  RH  068%=      5-min Rain = 0
KSC1 240338Z 12012KT 25/19 A2988 RMK A01 T02530190  RH  068%=      5-min Rain = 0
KSC1 240339Z 12011G16KT 25/19 A2988 RMK A01 T02520190  RH  068%=      5-min Rain = 0
KSC1 240340Z 12012KT 25/19 A2988 RMK A01 T02520190  RH  068%=      5-min Rain = 0
KSC1 240341Z 12012KT 25/19 A2989 RMK A01 T02520190  RH  068%=      5-min Rain = 0
KSC1 240342Z 12012KT 25/19 A2989 RMK A01 T02520189  RH  068%=      5-min Rain = 0
KSC1 240343Z 12011KT 25/19 A2988 RMK A01 T02530189  RH  068%=      5-min Rain = 0
KSC1 240344Z 12011KT 25/19 A2989 RMK A01 T02530190  RH  068%=      5-min Rain = 0
KSC1 240345Z 12012KT 25/19 A2989 RMK A01 T02520190  RH  068%=      5-min Rain = 0
KSC1 240346Z 12013KT 25/19 A2989 RMK A01 T02520189  RH  068%=      5-min Rain = 0
KSC1 240347Z 12013KT 25/19 A2989 RMK A01 T02520189  RH  068%=      5-min Rain = 0
KSC1 240348Z 12013KT 25/19 A2989 RMK A01 T02520189  RH  068%=      5-min Rain = 0
KSC1 240349Z 12015KT 25/19 A2989 RMK A01 T02520189  RH  068%=      5-min Rain = 0
KSC1 240350Z 12015KT 25/19 A2989 RMK A01 T02520189  RH  068%=      5-min Rain = 0
KSC1 240351Z 12015KT 25/19 A2989 RMK A01 T02530189  RH  068%=      5-min Rain = 0
KSC1 240352Z 12012KT 25/19 A2989 RMK A01 T02530189  RH  068%=      5-min Rain = 0
KSC1 240353Z 12013KT 25/19 A2989 RMK A01 T02540190  RH  068%=      5-min Rain = 0
KSC1 240354Z 12014G19KT 25/19 A2989 RMK A01 T02530189  RH  068%=      5-min Rain = 0
KSC1 240355Z 12013G18KT 25/19 A2989 RMK A01 T02530189  RH  068%=      5-min Rain = 0
KSC1 240356Z 12015KT 25/19 A2989 RMK A01 T02530189  RH  068%=      5-min Rain = 0
KSC1 240357Z 13016G21KT 25/19 A2989 RMK A01 T02540189  RH  067%=      5-min Rain = 0
KSC1 240358Z 12014KT 25/19 A2989 RMK A01 T02540189  RH  067%=      5-min Rain = 0
KSC1 240359Z 12014KT 25/19 A2989 RMK A01 T02540189  RH  067%=      5-min Rain = 0
KSC1 240400Z 12017KT 25/19 A2989 RMK A01 T02540189  RH  067%=      5-min Rain = 0
KSC1 240401Z 12014KT 25/19 A2989 RMK A01 T02540188  RH  067%=      5-min Rain = 0
KSC1 240402Z 12012KT 25/19 A2989 RMK A01 T02540189  RH  067%=      5-min Rain = 0
KSC1 240403Z 12013KT 25/19 A2989 RMK A01 T02540189  RH  067%=      5-min Rain = 0
KSC1 240404Z 12013KT 25/19 A2989 RMK A01 T02540189  RH  067%=      5-min Rain = 0
KSC1 240405Z 12015KT 25/19 A2989 RMK A01 T02540189  RH  067%=      5-min Rain = 0
KSC1 240406Z 12013KT 25/19 A2989 RMK A01 T02530189  RH  067%=      5-min Rain = 0
KSC1 240407Z 12013KT 25/19 A2989 RMK A01 T02530189  RH  067%=      5-min Rain = 0
KSC1 240408Z 12014KT 25/19 A2989 RMK A01 T02530189  RH  067%=      5-min Rain = 0
KSC1 240409Z 12015KT 25/19 A2989 RMK A01 T02530189  RH  067%=      5-min Rain = 0
KSC1 240410Z 12014KT 25/19 A2989 RMK A01 T02530189  RH  067%=      5-min Rain = 0
KSC1 240411Z 12011KT 25/19 A2989 RMK A01 T02530189  RH  067%=      5-min Rain = 0
KSC1 240412Z 12013KT 25/19 A2989 RMK A01 T02530189  RH  067%=      5-min Rain = 0
KSC1 240413Z 12012KT 25/19 A2989 RMK A01 T02520189  RH  068%=      5-min Rain = 0
KSC1 240414Z 12014KT 25/19 A2989 RMK A01 T02520188  RH  068%=      5-min Rain = 0
KSC1 240415Z 12014G19KT 25/19 A2989 RMK A01 T02520188  RH  068%=      5-min Rain = 0
KSC1 240416Z 12012KT 25/19 A2989 RMK A01 T02520189  RH  068%=      5-min Rain = 0
KSC1 240417Z 11014G19KT 25/19 A2989 RMK A01 T02510188  RH  068%=      5-min Rain = 0
KSC1 240418Z 11012KT 25/19 A2989 RMK A01 T02510188  RH  068%=      5-min Rain = 0
KSC1 240419Z 12011KT 25/19 A2989 RMK A01 T02510188  RH  068%=      5-min Rain = 0
KSC1 240420Z 11012KT 25/19 A2989 RMK A01 T02500188  RH  069%=      5-min Rain = 0
KSC1 240421Z 12010KT 25/19 A2989 RMK A01 T02490188  RH  069%=      5-min Rain = 0
KSC1 240422Z 12013KT 25/19 A2989 RMK A01 T02490188  RH  069%=      5-min Rain = 0
KSC1 240423Z 12014KT 25/19 A2989 RMK A01 T02480188  RH  069%=      5-min Rain = 0
KSC1 240424Z 12014KT 25/19 A2989 RMK A01 T02480188  RH  069%=      5-min Rain = 0
KSC1 240425Z 12015KT 25/19 A299 RMK A01 T02490188  RH  069%=      5-min Rain = 0
KSC1 240426Z 12014G20KT 25/19 A299 RMK A01 T02490188  RH  069%=      5-min Rain = 0
KSC1 240427Z 12016KT 25/19 A299 RMK A01 T02490188  RH  069%=      5-min Rain = 0
KSC1 240428Z 12015G20KT 25/19 A299 RMK A01 T02490188  RH  069%=      5-min Rain = 0
KSC1 240429Z 12014KT 25/19 A299 RMK A01 T02490188  RH  069%=      5-min Rain = 0
KSC1 240430Z 12014KT 25/19 A299 RMK A01 T02490188  RH  069%=      5-min Rain = 0
KSC1 240436Z 12015KT 25/19 A299 RMK A01 T02480189  RH  070%=      5-min Rain = 0
KSC1 240437Z 12013KT 25/19 A299 RMK A01 T02480189  RH  070%=      5-min Rain = 0
KSC1 240438Z 12012KT 25/19 A299 RMK A01 T02470188  RH  070%=      5-min Rain = 0
KSC1 240439Z 11012KT 25/19 A299 RMK A01 T02460188  RH  070%=      5-min Rain = 0
KSC1 240440Z 12013KT 25/19 A299 RMK A01 T02460188  RH  070%=      5-min Rain = 0
KSC1 240441Z 12014KT 25/19 A299 RMK A01 T02460188  RH  070%=      5-min Rain = 0
KSC1 240442Z 12012KT 25/19 A299 RMK A01 T02460188  RH  070%=      5-min Rain = 0
KSC1 240443Z 12011KT 25/19 A299 RMK A01 T02450188  RH  070%=      5-min Rain = 0
KSC1 240444Z 12010KT 25/19 A299 RMK A01 T02450188  RH  071%=      5-min Rain = 0
KSC1 240445Z 11009KT 25/19 A299 RMK A01 T02450188  RH  071%=      5-min Rain = 0
KSC1 240446Z 12011G17KT 24/19 A299 RMK A01 T02440188  RH  071%=      5-min Rain = 0
KSC1 240447Z 12011KT 24/19 A299 RMK A01 T02430188  RH  071%=      5-min Rain = 0
KSC1 240448Z 12012KT 24/19 A299 RMK A01 T02430188  RH  071%=      5-min Rain = 0
KSC1 240449Z 12012KT 24/19 A299 RMK A01 T02430188  RH  071%=      5-min Rain = 0
KSC1 240450Z 12014KT 24/19 A299 RMK A01 T02430188  RH  072%=      5-min Rain = 0
KSC1 240451Z 12014KT 24/19 A299 RMK A01 T02430188  RH  072%=      5-min Rain = 0
KSC1 240452Z 12014KT 24/19 A299 RMK A01 T02430188  RH  071%=      5-min Rain = 0
KSC1 240453Z 12015G20KT 24/19 A299 RMK A01 T02430188  RH  071%=      5-min Rain = 0
KSC1 240454Z 12013KT 24/19 A299 RMK A01 T02430188  RH  071%=      5-min Rain = 0
KSC1 240455Z 12015G20KT 24/19 A299 RMK A01 T02430188  RH  071%=      5-min Rain = 0
KSC1 240456Z 12016KT 24/19 A299 RMK A01 T02430188  RH  071%=      5-min Rain = 0
KSC1 240457Z 12013G18KT 24/19 A299 RMK A01 T02430188  RH  071%=      5-min Rain = 0
KSC1 240458Z 12018KT 24/19 A299 RMK A01 T02430188  RH  071%=      5-min Rain = 0
KSC1 240459Z 12017G23KT 24/19 A299 RMK A01 T02430188  RH  071%=      5-min Rain = 0

Page generated in 0.1311 seconds.